<?xml version="1.0" encoding="UTF-8" standalone="no" ?>
<gpx xmlns="http://www.topografix.com/GPX/1/1" xmlns:xsi="http://www.w3.org/2001/XMLSchema-instance" xsi:schemaLocation="http://www.topografix.com/GPX/1/1 http://www.topografix.com/GPX/1/1/gpx.xsd" version="1.1" creator="VisuGPX - https://www.visugpx.com">
  <metadata>
    <name>Rando - Vers Saillans</name>
    <desc><![CDATA[Petite balade avec une superbe vue sur les 3 Becs.]]></desc>
  </metadata>
  <trk>
    <name><![CDATA[07-MAI-21 10:58:52]]></name>
    <trkseg>
      <trkpt lat="44.69713" lon="5.19992">
        <ele>227.97</ele>
        <time>2021-05-07T07:19:07Z</time>
      </trkpt>
      <trkpt lat="44.69719" lon="5.19998">
        <ele>229.41</ele>
        <time>2021-05-07T07:19:15Z</time>
      </trkpt>
      <trkpt lat="44.69721" lon="5.20003">
        <ele>231.33</ele>
        <time>2021-05-07T07:19:20Z</time>
      </trkpt>
      <trkpt lat="44.69725" lon="5.20006">
        <ele>231.33</ele>
        <time>2021-05-07T07:19:25Z</time>
      </trkpt>
      <trkpt lat="44.69742" lon="5.20009">
        <ele>232.3</ele>
        <time>2021-05-07T07:19:38Z</time>
      </trkpt>
      <trkpt lat="44.69744" lon="5.2001">
        <ele>236.62</ele>
        <time>2021-05-07T07:19:41Z</time>
      </trkpt>
      <trkpt lat="44.69744" lon="5.2001">
        <ele>238.54</ele>
        <time>2021-05-07T07:19:42Z</time>
      </trkpt>
      <trkpt lat="44.69749" lon="5.20012">
        <ele>244.31</ele>
        <time>2021-05-07T07:19:46Z</time>
      </trkpt>
      <trkpt lat="44.69751" lon="5.20013">
        <ele>248.16</ele>
        <time>2021-05-07T07:19:50Z</time>
      </trkpt>
      <trkpt lat="44.69753" lon="5.20013">
        <ele>251.52</ele>
        <time>2021-05-07T07:19:53Z</time>
      </trkpt>
      <trkpt lat="44.69754" lon="5.20013">
        <ele>252</ele>
        <time>2021-05-07T07:19:54Z</time>
      </trkpt>
      <trkpt lat="44.69759" lon="5.20014">
        <ele>256.33</ele>
        <time>2021-05-07T07:19:58Z</time>
      </trkpt>
      <trkpt lat="44.6976" lon="5.20014">
        <ele>256.81</ele>
        <time>2021-05-07T07:19:59Z</time>
      </trkpt>
      <trkpt lat="44.69765" lon="5.2002">
        <ele>261.14</ele>
        <time>2021-05-07T07:20:04Z</time>
      </trkpt>
      <trkpt lat="44.69767" lon="5.20021">
        <ele>263.06</ele>
        <time>2021-05-07T07:20:07Z</time>
      </trkpt>
      <trkpt lat="44.6977" lon="5.20029">
        <ele>266.9</ele>
        <time>2021-05-07T07:20:13Z</time>
      </trkpt>
      <trkpt lat="44.69773" lon="5.20035">
        <ele>269.79</ele>
        <time>2021-05-07T07:20:18Z</time>
      </trkpt>
      <trkpt lat="44.69774" lon="5.20036">
        <ele>271.23</ele>
        <time>2021-05-07T07:20:20Z</time>
      </trkpt>
      <trkpt lat="44.69779" lon="5.2004">
        <ele>273.15</ele>
        <time>2021-05-07T07:20:25Z</time>
      </trkpt>
      <trkpt lat="44.69782" lon="5.20046">
        <ele>275.56</ele>
        <time>2021-05-07T07:20:31Z</time>
      </trkpt>
      <trkpt lat="44.69783" lon="5.2005">
        <ele>276.52</ele>
        <time>2021-05-07T07:20:34Z</time>
      </trkpt>
      <trkpt lat="44.69783" lon="5.20059">
        <ele>280.36</ele>
        <time>2021-05-07T07:20:44Z</time>
      </trkpt>
      <trkpt lat="44.69783" lon="5.2006">
        <ele>280.84</ele>
        <time>2021-05-07T07:20:45Z</time>
      </trkpt>
      <trkpt lat="44.69783" lon="5.2006">
        <ele>283.25</ele>
        <time>2021-05-07T07:20:50Z</time>
      </trkpt>
      <trkpt lat="44.69782" lon="5.20065">
        <ele>284.21</ele>
        <time>2021-05-07T07:20:54Z</time>
      </trkpt>
      <trkpt lat="44.69785" lon="5.20077">
        <ele>285.65</ele>
        <time>2021-05-07T07:21:03Z</time>
      </trkpt>
      <trkpt lat="44.69785" lon="5.20092">
        <ele>289.49</ele>
        <time>2021-05-07T07:21:16Z</time>
      </trkpt>
      <trkpt lat="44.69784" lon="5.20104">
        <ele>292.86</ele>
        <time>2021-05-07T07:21:28Z</time>
      </trkpt>
      <trkpt lat="44.69785" lon="5.20108">
        <ele>296.22</ele>
        <time>2021-05-07T07:21:42Z</time>
      </trkpt>
      <trkpt lat="44.69785" lon="5.20109">
        <ele>299.11</ele>
        <time>2021-05-07T07:21:54Z</time>
      </trkpt>
      <trkpt lat="44.69785" lon="5.20109">
        <ele>300.07</ele>
        <time>2021-05-07T07:21:56Z</time>
      </trkpt>
      <trkpt lat="44.69785" lon="5.20109">
        <ele>301.51</ele>
        <time>2021-05-07T07:22:00Z</time>
      </trkpt>
      <trkpt lat="44.69786" lon="5.20111">
        <ele>302.95</ele>
        <time>2021-05-07T07:22:07Z</time>
      </trkpt>
      <trkpt lat="44.69784" lon="5.20119">
        <ele>305.84</ele>
        <time>2021-05-07T07:22:20Z</time>
      </trkpt>
      <trkpt lat="44.69783" lon="5.2013">
        <ele>308.72</ele>
        <time>2021-05-07T07:22:30Z</time>
      </trkpt>
      <trkpt lat="44.69782" lon="5.20136">
        <ele>310.64</ele>
        <time>2021-05-07T07:22:41Z</time>
      </trkpt>
      <trkpt lat="44.69782" lon="5.20136">
        <ele>310.64</ele>
        <time>2021-05-07T07:23:06Z</time>
      </trkpt>
      <trkpt lat="44.69782" lon="5.20144">
        <ele>310.64</ele>
        <time>2021-05-07T07:23:36Z</time>
      </trkpt>
      <trkpt lat="44.69779" lon="5.20147">
        <ele>311.6</ele>
        <time>2021-05-07T07:23:57Z</time>
      </trkpt>
      <trkpt lat="44.69773" lon="5.20167">
        <ele>313.53</ele>
        <time>2021-05-07T07:24:11Z</time>
      </trkpt>
      <trkpt lat="44.69773" lon="5.20174">
        <ele>314.49</ele>
        <time>2021-05-07T07:24:15Z</time>
      </trkpt>
      <trkpt lat="44.6977" lon="5.20197">
        <ele>317.37</ele>
        <time>2021-05-07T07:24:27Z</time>
      </trkpt>
      <trkpt lat="44.69768" lon="5.20202">
        <ele>318.33</ele>
        <time>2021-05-07T07:24:31Z</time>
      </trkpt>
      <trkpt lat="44.69769" lon="5.20207">
        <ele>321.22</ele>
        <time>2021-05-07T07:24:39Z</time>
      </trkpt>
      <trkpt lat="44.69765" lon="5.2022">
        <ele>323.14</ele>
        <time>2021-05-07T07:24:50Z</time>
      </trkpt>
      <trkpt lat="44.69764" lon="5.20222">
        <ele>323.14</ele>
        <time>2021-05-07T07:24:52Z</time>
      </trkpt>
      <trkpt lat="44.69758" lon="5.20235">
        <ele>326.02</ele>
        <time>2021-05-07T07:25:04Z</time>
      </trkpt>
      <trkpt lat="44.69757" lon="5.20242">
        <ele>327.47</ele>
        <time>2021-05-07T07:25:16Z</time>
      </trkpt>
      <trkpt lat="44.69757" lon="5.20242">
        <ele>328.91</ele>
        <time>2021-05-07T07:25:28Z</time>
      </trkpt>
      <trkpt lat="44.6976" lon="5.20255">
        <ele>331.79</ele>
        <time>2021-05-07T07:25:41Z</time>
      </trkpt>
      <trkpt lat="44.69762" lon="5.20265">
        <ele>334.68</ele>
        <time>2021-05-07T07:25:56Z</time>
      </trkpt>
      <trkpt lat="44.69768" lon="5.20262">
        <ele>336.6</ele>
        <time>2021-05-07T07:26:08Z</time>
      </trkpt>
      <trkpt lat="44.6978" lon="5.20261">
        <ele>337.56</ele>
        <time>2021-05-07T07:26:19Z</time>
      </trkpt>
      <trkpt lat="44.69789" lon="5.20258">
        <ele>338.52</ele>
        <time>2021-05-07T07:26:26Z</time>
      </trkpt>
      <trkpt lat="44.69797" lon="5.20257">
        <ele>339.96</ele>
        <time>2021-05-07T07:26:34Z</time>
      </trkpt>
      <trkpt lat="44.69805" lon="5.20257">
        <ele>342.85</ele>
        <time>2021-05-07T07:26:49Z</time>
      </trkpt>
      <trkpt lat="44.69804" lon="5.20258">
        <ele>342.85</ele>
        <time>2021-05-07T07:26:52Z</time>
      </trkpt>
      <trkpt lat="44.69796" lon="5.20272">
        <ele>344.77</ele>
        <time>2021-05-07T07:27:06Z</time>
      </trkpt>
      <trkpt lat="44.69792" lon="5.20277">
        <ele>345.73</ele>
        <time>2021-05-07T07:27:12Z</time>
      </trkpt>
      <trkpt lat="44.69788" lon="5.20286">
        <ele>346.69</ele>
        <time>2021-05-07T07:27:18Z</time>
      </trkpt>
      <trkpt lat="44.6978" lon="5.20296">
        <ele>349.1</ele>
        <time>2021-05-07T07:27:32Z</time>
      </trkpt>
      <trkpt lat="44.69783" lon="5.20293">
        <ele>349.58</ele>
        <time>2021-05-07T07:27:39Z</time>
      </trkpt>
      <trkpt lat="44.69794" lon="5.20284">
        <ele>351.5</ele>
        <time>2021-05-07T07:27:52Z</time>
      </trkpt>
      <trkpt lat="44.698" lon="5.20279">
        <ele>352.46</ele>
        <time>2021-05-07T07:27:59Z</time>
      </trkpt>
      <trkpt lat="44.69808" lon="5.20277">
        <ele>353.9</ele>
        <time>2021-05-07T07:28:07Z</time>
      </trkpt>
      <trkpt lat="44.69823" lon="5.2027">
        <ele>355.83</ele>
        <time>2021-05-07T07:28:22Z</time>
      </trkpt>
      <trkpt lat="44.69828" lon="5.20269">
        <ele>357.27</ele>
        <time>2021-05-07T07:28:28Z</time>
      </trkpt>
      <trkpt lat="44.69843" lon="5.20273">
        <ele>359.67</ele>
        <time>2021-05-07T07:28:44Z</time>
      </trkpt>
      <trkpt lat="44.69859" lon="5.20273">
        <ele>362.07</ele>
        <time>2021-05-07T07:28:58Z</time>
      </trkpt>
      <trkpt lat="44.69877" lon="5.20271">
        <ele>363.52</ele>
        <time>2021-05-07T07:29:12Z</time>
      </trkpt>
      <trkpt lat="44.69889" lon="5.20277">
        <ele>365.92</ele>
        <time>2021-05-07T07:29:26Z</time>
      </trkpt>
      <trkpt lat="44.69889" lon="5.20277">
        <ele>368.8</ele>
        <time>2021-05-07T07:29:41Z</time>
      </trkpt>
      <trkpt lat="44.6989" lon="5.20281">
        <ele>369.76</ele>
        <time>2021-05-07T07:29:48Z</time>
      </trkpt>
      <trkpt lat="44.69884" lon="5.20289">
        <ele>371.69</ele>
        <time>2021-05-07T07:30:05Z</time>
      </trkpt>
      <trkpt lat="44.69876" lon="5.20303">
        <ele>374.57</ele>
        <time>2021-05-07T07:30:20Z</time>
      </trkpt>
      <trkpt lat="44.6987" lon="5.2031">
        <ele>376.01</ele>
        <time>2021-05-07T07:30:35Z</time>
      </trkpt>
      <trkpt lat="44.6987" lon="5.2031">
        <ele>376.01</ele>
        <time>2021-05-07T07:31:03Z</time>
      </trkpt>
      <trkpt lat="44.69869" lon="5.2031">
        <ele>376.01</ele>
        <time>2021-05-07T07:31:35Z</time>
      </trkpt>
      <trkpt lat="44.69866" lon="5.20307">
        <ele>376.49</ele>
        <time>2021-05-07T07:32:02Z</time>
      </trkpt>
      <trkpt lat="44.69848" lon="5.20317">
        <ele>378.9</ele>
        <time>2021-05-07T07:32:17Z</time>
      </trkpt>
      <trkpt lat="44.69839" lon="5.20326">
        <ele>381.3</ele>
        <time>2021-05-07T07:32:31Z</time>
      </trkpt>
      <trkpt lat="44.69858" lon="5.20337">
        <ele>384.18</ele>
        <time>2021-05-07T07:32:49Z</time>
      </trkpt>
      <trkpt lat="44.69876" lon="5.20341">
        <ele>387.07</ele>
        <time>2021-05-07T07:33:06Z</time>
      </trkpt>
      <trkpt lat="44.69887" lon="5.2034">
        <ele>388.51</ele>
        <time>2021-05-07T07:33:15Z</time>
      </trkpt>
      <trkpt lat="44.69896" lon="5.20339">
        <ele>389.95</ele>
        <time>2021-05-07T07:33:22Z</time>
      </trkpt>
      <trkpt lat="44.69907" lon="5.20342">
        <ele>391.87</ele>
        <time>2021-05-07T07:33:32Z</time>
      </trkpt>
      <trkpt lat="44.69913" lon="5.20349">
        <ele>394.28</ele>
        <time>2021-05-07T07:33:45Z</time>
      </trkpt>
      <trkpt lat="44.69902" lon="5.20357">
        <ele>396.68</ele>
        <time>2021-05-07T07:34:00Z</time>
      </trkpt>
      <trkpt lat="44.69891" lon="5.20361">
        <ele>397.64</ele>
        <time>2021-05-07T07:34:10Z</time>
      </trkpt>
      <trkpt lat="44.69886" lon="5.20367">
        <ele>399.08</ele>
        <time>2021-05-07T07:34:15Z</time>
      </trkpt>
      <trkpt lat="44.69882" lon="5.20368">
        <ele>399.57</ele>
        <time>2021-05-07T07:34:18Z</time>
      </trkpt>
      <trkpt lat="44.6986" lon="5.20376">
        <ele>401.49</ele>
        <time>2021-05-07T07:34:33Z</time>
      </trkpt>
      <trkpt lat="44.69859" lon="5.20376">
        <ele>401.97</ele>
        <time>2021-05-07T07:34:34Z</time>
      </trkpt>
      <trkpt lat="44.69861" lon="5.20381">
        <ele>404.37</ele>
        <time>2021-05-07T07:34:45Z</time>
      </trkpt>
      <trkpt lat="44.69867" lon="5.20385">
        <ele>404.85</ele>
        <time>2021-05-07T07:34:50Z</time>
      </trkpt>
      <trkpt lat="44.69884" lon="5.20391">
        <ele>407.26</ele>
        <time>2021-05-07T07:35:05Z</time>
      </trkpt>
      <trkpt lat="44.69886" lon="5.20391">
        <ele>408.22</ele>
        <time>2021-05-07T07:35:07Z</time>
      </trkpt>
      <trkpt lat="44.69898" lon="5.20392">
        <ele>409.18</ele>
        <time>2021-05-07T07:35:16Z</time>
      </trkpt>
      <trkpt lat="44.69917" lon="5.20396">
        <ele>411.1</ele>
        <time>2021-05-07T07:35:33Z</time>
      </trkpt>
      <trkpt lat="44.69933" lon="5.20402">
        <ele>414.47</ele>
        <time>2021-05-07T07:35:48Z</time>
      </trkpt>
      <trkpt lat="44.69945" lon="5.20404">
        <ele>416.39</ele>
        <time>2021-05-07T07:35:59Z</time>
      </trkpt>
      <trkpt lat="44.69965" lon="5.2041">
        <ele>419.27</ele>
        <time>2021-05-07T07:36:15Z</time>
      </trkpt>
      <trkpt lat="44.69969" lon="5.20411">
        <ele>421.19</ele>
        <time>2021-05-07T07:36:27Z</time>
      </trkpt>
      <trkpt lat="44.69952" lon="5.20415">
        <ele>423.6</ele>
        <time>2021-05-07T07:36:44Z</time>
      </trkpt>
      <trkpt lat="44.69948" lon="5.20417">
        <ele>424.08</ele>
        <time>2021-05-07T07:36:49Z</time>
      </trkpt>
      <trkpt lat="44.69929" lon="5.20422">
        <ele>426.48</ele>
        <time>2021-05-07T07:37:04Z</time>
      </trkpt>
      <trkpt lat="44.69913" lon="5.20436">
        <ele>428.4</ele>
        <time>2021-05-07T07:37:19Z</time>
      </trkpt>
      <trkpt lat="44.69898" lon="5.20452">
        <ele>431.77</ele>
        <time>2021-05-07T07:37:35Z</time>
      </trkpt>
      <trkpt lat="44.699" lon="5.20458">
        <ele>434.17</ele>
        <time>2021-05-07T07:37:49Z</time>
      </trkpt>
      <trkpt lat="44.69918" lon="5.20464">
        <ele>436.1</ele>
        <time>2021-05-07T07:38:06Z</time>
      </trkpt>
      <trkpt lat="44.69934" lon="5.20459">
        <ele>438.98</ele>
        <time>2021-05-07T07:38:23Z</time>
      </trkpt>
      <trkpt lat="44.69946" lon="5.20459">
        <ele>440.9</ele>
        <time>2021-05-07T07:38:35Z</time>
      </trkpt>
      <trkpt lat="44.69967" lon="5.20469">
        <ele>443.31</ele>
        <time>2021-05-07T07:38:52Z</time>
      </trkpt>
      <trkpt lat="44.69976" lon="5.20469">
        <ele>446.19</ele>
        <time>2021-05-07T07:39:08Z</time>
      </trkpt>
      <trkpt lat="44.6999" lon="5.20475">
        <ele>448.11</ele>
        <time>2021-05-07T07:39:21Z</time>
      </trkpt>
      <trkpt lat="44.69979" lon="5.2048">
        <ele>450.52</ele>
        <time>2021-05-07T07:39:37Z</time>
      </trkpt>
      <trkpt lat="44.69972" lon="5.20484">
        <ele>451.96</ele>
        <time>2021-05-07T07:39:46Z</time>
      </trkpt>
      <trkpt lat="44.69959" lon="5.20489">
        <ele>453.4</ele>
        <time>2021-05-07T07:39:56Z</time>
      </trkpt>
      <trkpt lat="44.69949" lon="5.20493">
        <ele>454.84</ele>
        <time>2021-05-07T07:40:05Z</time>
      </trkpt>
      <trkpt lat="44.69938" lon="5.20501">
        <ele>456.28</ele>
        <time>2021-05-07T07:40:14Z</time>
      </trkpt>
      <trkpt lat="44.6993" lon="5.20507">
        <ele>457.24</ele>
        <time>2021-05-07T07:40:21Z</time>
      </trkpt>
      <trkpt lat="44.69932" lon="5.20511">
        <ele>458.69</ele>
        <time>2021-05-07T07:40:27Z</time>
      </trkpt>
      <trkpt lat="44.69948" lon="5.20514">
        <ele>461.09</ele>
        <time>2021-05-07T07:40:45Z</time>
      </trkpt>
      <trkpt lat="44.69964" lon="5.20516">
        <ele>463.01</ele>
        <time>2021-05-07T07:41:01Z</time>
      </trkpt>
      <trkpt lat="44.69975" lon="5.20518">
        <ele>465.42</ele>
        <time>2021-05-07T07:41:15Z</time>
      </trkpt>
      <trkpt lat="44.69996" lon="5.20522">
        <ele>466.86</ele>
        <time>2021-05-07T07:41:29Z</time>
      </trkpt>
      <trkpt lat="44.70019" lon="5.2052">
        <ele>468.78</ele>
        <time>2021-05-07T07:41:42Z</time>
      </trkpt>
      <trkpt lat="44.70018" lon="5.20519">
        <ele>470.22</ele>
        <time>2021-05-07T07:41:47Z</time>
      </trkpt>
      <trkpt lat="44.70008" lon="5.20527">
        <ele>472.14</ele>
        <time>2021-05-07T07:42:01Z</time>
      </trkpt>
      <trkpt lat="44.69992" lon="5.20532">
        <ele>474.55</ele>
        <time>2021-05-07T07:42:15Z</time>
      </trkpt>
      <trkpt lat="44.69987" lon="5.20535">
        <ele>475.03</ele>
        <time>2021-05-07T07:42:19Z</time>
      </trkpt>
      <trkpt lat="44.69976" lon="5.20544">
        <ele>476.47</ele>
        <time>2021-05-07T07:42:28Z</time>
      </trkpt>
      <trkpt lat="44.6997" lon="5.20566">
        <ele>478.39</ele>
        <time>2021-05-07T07:42:43Z</time>
      </trkpt>
      <trkpt lat="44.6997" lon="5.20568">
        <ele>478.39</ele>
        <time>2021-05-07T07:42:45Z</time>
      </trkpt>
      <trkpt lat="44.69974" lon="5.2059">
        <ele>480.32</ele>
        <time>2021-05-07T07:42:59Z</time>
      </trkpt>
      <trkpt lat="44.69979" lon="5.20601">
        <ele>482.24</ele>
        <time>2021-05-07T07:43:11Z</time>
      </trkpt>
      <trkpt lat="44.69995" lon="5.20627">
        <ele>484.16</ele>
        <time>2021-05-07T07:43:27Z</time>
      </trkpt>
      <trkpt lat="44.69998" lon="5.20635">
        <ele>484.64</ele>
        <time>2021-05-07T07:43:32Z</time>
      </trkpt>
      <trkpt lat="44.7" lon="5.20649">
        <ele>485.6</ele>
        <time>2021-05-07T07:43:47Z</time>
      </trkpt>
      <trkpt lat="44.70002" lon="5.20655">
        <ele>486.08</ele>
        <time>2021-05-07T07:44:01Z</time>
      </trkpt>
      <trkpt lat="44.70004" lon="5.20661">
        <ele>487.05</ele>
        <time>2021-05-07T07:44:04Z</time>
      </trkpt>
      <trkpt lat="44.70007" lon="5.2067">
        <ele>487.53</ele>
        <time>2021-05-07T07:44:11Z</time>
      </trkpt>
      <trkpt lat="44.70008" lon="5.20678">
        <ele>488.01</ele>
        <time>2021-05-07T07:44:17Z</time>
      </trkpt>
      <trkpt lat="44.7001" lon="5.20693">
        <ele>488.97</ele>
        <time>2021-05-07T07:44:26Z</time>
      </trkpt>
      <trkpt lat="44.70011" lon="5.20703">
        <ele>489.93</ele>
        <time>2021-05-07T07:44:32Z</time>
      </trkpt>
      <trkpt lat="44.70013" lon="5.2071">
        <ele>490.41</ele>
        <time>2021-05-07T07:44:37Z</time>
      </trkpt>
      <trkpt lat="44.70016" lon="5.20723">
        <ele>492.33</ele>
        <time>2021-05-07T07:44:52Z</time>
      </trkpt>
      <trkpt lat="44.70016" lon="5.20723">
        <ele>492.81</ele>
        <time>2021-05-07T07:45:15Z</time>
      </trkpt>
      <trkpt lat="44.70016" lon="5.20723">
        <ele>492.33</ele>
        <time>2021-05-07T07:45:36Z</time>
      </trkpt>
      <trkpt lat="44.70016" lon="5.20723">
        <ele>492.81</ele>
        <time>2021-05-07T07:46:03Z</time>
      </trkpt>
      <trkpt lat="44.70015" lon="5.20722">
        <ele>493.29</ele>
        <time>2021-05-07T07:46:22Z</time>
      </trkpt>
      <trkpt lat="44.70015" lon="5.20722">
        <ele>493.29</ele>
        <time>2021-05-07T07:46:41Z</time>
      </trkpt>
      <trkpt lat="44.70015" lon="5.20722">
        <ele>493.29</ele>
        <time>2021-05-07T07:47:10Z</time>
      </trkpt>
      <trkpt lat="44.70016" lon="5.20726">
        <ele>493.77</ele>
        <time>2021-05-07T07:47:35Z</time>
      </trkpt>
      <trkpt lat="44.70014" lon="5.20737">
        <ele>494.74</ele>
        <time>2021-05-07T07:47:41Z</time>
      </trkpt>
      <trkpt lat="44.70015" lon="5.20739">
        <ele>494.26</ele>
        <time>2021-05-07T07:47:43Z</time>
      </trkpt>
      <trkpt lat="44.70014" lon="5.2076">
        <ele>496.18</ele>
        <time>2021-05-07T07:47:55Z</time>
      </trkpt>
      <trkpt lat="44.70015" lon="5.20778">
        <ele>499.06</ele>
        <time>2021-05-07T07:48:07Z</time>
      </trkpt>
      <trkpt lat="44.70015" lon="5.20786">
        <ele>500.02</ele>
        <time>2021-05-07T07:48:11Z</time>
      </trkpt>
      <trkpt lat="44.70017" lon="5.20809">
        <ele>500.98</ele>
        <time>2021-05-07T07:48:24Z</time>
      </trkpt>
      <trkpt lat="44.70019" lon="5.20819">
        <ele>501.95</ele>
        <time>2021-05-07T07:48:31Z</time>
      </trkpt>
      <trkpt lat="44.70021" lon="5.20827">
        <ele>503.39</ele>
        <time>2021-05-07T07:48:37Z</time>
      </trkpt>
      <trkpt lat="44.70025" lon="5.20839">
        <ele>503.87</ele>
        <time>2021-05-07T07:48:52Z</time>
      </trkpt>
      <trkpt lat="44.70025" lon="5.20839">
        <ele>503.87</ele>
        <time>2021-05-07T07:49:03Z</time>
      </trkpt>
      <trkpt lat="44.70026" lon="5.20839">
        <ele>504.35</ele>
        <time>2021-05-07T07:49:30Z</time>
      </trkpt>
      <trkpt lat="44.70026" lon="5.20839">
        <ele>503.87</ele>
        <time>2021-05-07T07:50:04Z</time>
      </trkpt>
      <trkpt lat="44.70026" lon="5.20839">
        <ele>504.35</ele>
        <time>2021-05-07T07:50:34Z</time>
      </trkpt>
      <trkpt lat="44.70026" lon="5.20842">
        <ele>504.35</ele>
        <time>2021-05-07T07:50:48Z</time>
      </trkpt>
      <trkpt lat="44.70026" lon="5.20842">
        <ele>504.35</ele>
        <time>2021-05-07T07:51:21Z</time>
      </trkpt>
      <trkpt lat="44.70026" lon="5.20843">
        <ele>504.35</ele>
        <time>2021-05-07T07:51:56Z</time>
      </trkpt>
      <trkpt lat="44.70026" lon="5.20842">
        <ele>504.83</ele>
        <time>2021-05-07T07:52:16Z</time>
      </trkpt>
      <trkpt lat="44.70026" lon="5.20842">
        <ele>504.83</ele>
        <time>2021-05-07T07:52:21Z</time>
      </trkpt>
      <trkpt lat="44.70026" lon="5.20848">
        <ele>505.31</ele>
        <time>2021-05-07T07:52:27Z</time>
      </trkpt>
      <trkpt lat="44.70028" lon="5.20852">
        <ele>506.27</ele>
        <time>2021-05-07T07:52:30Z</time>
      </trkpt>
      <trkpt lat="44.7004" lon="5.20877">
        <ele>509.16</ele>
        <time>2021-05-07T07:52:46Z</time>
      </trkpt>
      <trkpt lat="44.70042" lon="5.20881">
        <ele>510.12</ele>
        <time>2021-05-07T07:52:50Z</time>
      </trkpt>
      <trkpt lat="44.70048" lon="5.20888">
        <ele>511.56</ele>
        <time>2021-05-07T07:52:59Z</time>
      </trkpt>
      <trkpt lat="44.70055" lon="5.20892">
        <ele>513.96</ele>
        <time>2021-05-07T07:53:09Z</time>
      </trkpt>
      <trkpt lat="44.70051" lon="5.2087">
        <ele>515.4</ele>
        <time>2021-05-07T07:53:21Z</time>
      </trkpt>
      <trkpt lat="44.70052" lon="5.20848">
        <ele>517.33</ele>
        <time>2021-05-07T07:53:33Z</time>
      </trkpt>
      <trkpt lat="44.70053" lon="5.20837">
        <ele>518.29</ele>
        <time>2021-05-07T07:53:39Z</time>
      </trkpt>
      <trkpt lat="44.70055" lon="5.20827">
        <ele>519.25</ele>
        <time>2021-05-07T07:53:44Z</time>
      </trkpt>
      <trkpt lat="44.70057" lon="5.20813">
        <ele>520.69</ele>
        <time>2021-05-07T07:53:53Z</time>
      </trkpt>
      <trkpt lat="44.7006" lon="5.20796">
        <ele>522.61</ele>
        <time>2021-05-07T07:54:03Z</time>
      </trkpt>
      <trkpt lat="44.70063" lon="5.20767">
        <ele>525.02</ele>
        <time>2021-05-07T07:54:18Z</time>
      </trkpt>
      <trkpt lat="44.70066" lon="5.20762">
        <ele>525.98</ele>
        <time>2021-05-07T07:54:23Z</time>
      </trkpt>
      <trkpt lat="44.70066" lon="5.20759">
        <ele>526.46</ele>
        <time>2021-05-07T07:54:25Z</time>
      </trkpt>
      <trkpt lat="44.7007" lon="5.20746">
        <ele>527.9</ele>
        <time>2021-05-07T07:54:35Z</time>
      </trkpt>
      <trkpt lat="44.70071" lon="5.20744">
        <ele>528.38</ele>
        <time>2021-05-07T07:54:47Z</time>
      </trkpt>
      <trkpt lat="44.70071" lon="5.20744">
        <ele>527.9</ele>
        <time>2021-05-07T07:55:18Z</time>
      </trkpt>
      <trkpt lat="44.70072" lon="5.20743">
        <ele>528.38</ele>
        <time>2021-05-07T07:55:20Z</time>
      </trkpt>
      <trkpt lat="44.70075" lon="5.20732">
        <ele>529.82</ele>
        <time>2021-05-07T07:55:31Z</time>
      </trkpt>
      <trkpt lat="44.70075" lon="5.2072">
        <ele>530.79</ele>
        <time>2021-05-07T07:55:42Z</time>
      </trkpt>
      <trkpt lat="44.70077" lon="5.20709">
        <ele>532.23</ele>
        <time>2021-05-07T07:55:50Z</time>
      </trkpt>
      <trkpt lat="44.70082" lon="5.20693">
        <ele>533.67</ele>
        <time>2021-05-07T07:55:59Z</time>
      </trkpt>
      <trkpt lat="44.70084" lon="5.20686">
        <ele>533.67</ele>
        <time>2021-05-07T07:56:03Z</time>
      </trkpt>
      <trkpt lat="44.70088" lon="5.20671">
        <ele>536.07</ele>
        <time>2021-05-07T07:56:12Z</time>
      </trkpt>
      <trkpt lat="44.70093" lon="5.2066">
        <ele>537.03</ele>
        <time>2021-05-07T07:56:19Z</time>
      </trkpt>
      <trkpt lat="44.70095" lon="5.20653">
        <ele>538.48</ele>
        <time>2021-05-07T07:56:24Z</time>
      </trkpt>
      <trkpt lat="44.701" lon="5.20649">
        <ele>539.44</ele>
        <time>2021-05-07T07:56:31Z</time>
      </trkpt>
      <trkpt lat="44.70101" lon="5.20662">
        <ele>541.36</ele>
        <time>2021-05-07T07:56:40Z</time>
      </trkpt>
      <trkpt lat="44.701" lon="5.20673">
        <ele>542.32</ele>
        <time>2021-05-07T07:56:47Z</time>
      </trkpt>
      <trkpt lat="44.701" lon="5.20677">
        <ele>542.8</ele>
        <time>2021-05-07T07:56:49Z</time>
      </trkpt>
      <trkpt lat="44.701" lon="5.207">
        <ele>544.72</ele>
        <time>2021-05-07T07:57:01Z</time>
      </trkpt>
      <trkpt lat="44.70104" lon="5.2072">
        <ele>546.65</ele>
        <time>2021-05-07T07:57:14Z</time>
      </trkpt>
      <trkpt lat="44.70106" lon="5.20732">
        <ele>548.09</ele>
        <time>2021-05-07T07:57:23Z</time>
      </trkpt>
      <trkpt lat="44.70107" lon="5.20736">
        <ele>549.53</ele>
        <time>2021-05-07T07:57:25Z</time>
      </trkpt>
      <trkpt lat="44.70109" lon="5.20767">
        <ele>551.93</ele>
        <time>2021-05-07T07:57:41Z</time>
      </trkpt>
      <trkpt lat="44.70111" lon="5.20781">
        <ele>553.38</ele>
        <time>2021-05-07T07:57:51Z</time>
      </trkpt>
      <trkpt lat="44.70113" lon="5.20789">
        <ele>553.86</ele>
        <time>2021-05-07T07:57:55Z</time>
      </trkpt>
      <trkpt lat="44.70117" lon="5.20801">
        <ele>555.3</ele>
        <time>2021-05-07T07:58:02Z</time>
      </trkpt>
      <trkpt lat="44.70122" lon="5.20816">
        <ele>557.7</ele>
        <time>2021-05-07T07:58:14Z</time>
      </trkpt>
      <trkpt lat="44.70126" lon="5.20824">
        <ele>558.66</ele>
        <time>2021-05-07T07:58:22Z</time>
      </trkpt>
      <trkpt lat="44.70135" lon="5.20839">
        <ele>561.07</ele>
        <time>2021-05-07T07:58:33Z</time>
      </trkpt>
      <trkpt lat="44.70139" lon="5.20852">
        <ele>562.03</ele>
        <time>2021-05-07T07:58:39Z</time>
      </trkpt>
      <trkpt lat="44.70143" lon="5.20857">
        <ele>562.99</ele>
        <time>2021-05-07T07:58:44Z</time>
      </trkpt>
      <trkpt lat="44.70151" lon="5.20871">
        <ele>563.95</ele>
        <time>2021-05-07T07:58:55Z</time>
      </trkpt>
      <trkpt lat="44.70165" lon="5.20886">
        <ele>566.83</ele>
        <time>2021-05-07T07:59:09Z</time>
      </trkpt>
      <trkpt lat="44.70175" lon="5.20897">
        <ele>568.76</ele>
        <time>2021-05-07T07:59:18Z</time>
      </trkpt>
      <trkpt lat="44.70177" lon="5.20898">
        <ele>568.28</ele>
        <time>2021-05-07T07:59:20Z</time>
      </trkpt>
      <trkpt lat="44.70197" lon="5.20914">
        <ele>571.16</ele>
        <time>2021-05-07T07:59:35Z</time>
      </trkpt>
      <trkpt lat="44.70201" lon="5.20918">
        <ele>571.64</ele>
        <time>2021-05-07T07:59:40Z</time>
      </trkpt>
      <trkpt lat="44.7021" lon="5.20932">
        <ele>574.04</ele>
        <time>2021-05-07T07:59:52Z</time>
      </trkpt>
      <trkpt lat="44.70208" lon="5.20944">
        <ele>575.01</ele>
        <time>2021-05-07T08:00:00Z</time>
      </trkpt>
      <trkpt lat="44.70207" lon="5.20948">
        <ele>575.49</ele>
        <time>2021-05-07T08:00:02Z</time>
      </trkpt>
      <trkpt lat="44.70205" lon="5.20957">
        <ele>576.45</ele>
        <time>2021-05-07T08:00:08Z</time>
      </trkpt>
      <trkpt lat="44.70198" lon="5.20975">
        <ele>578.37</ele>
        <time>2021-05-07T08:00:20Z</time>
      </trkpt>
      <trkpt lat="44.70195" lon="5.2098">
        <ele>578.85</ele>
        <time>2021-05-07T08:00:23Z</time>
      </trkpt>
      <trkpt lat="44.7019" lon="5.2099">
        <ele>579.33</ele>
        <time>2021-05-07T08:00:32Z</time>
      </trkpt>
      <trkpt lat="44.70184" lon="5.20999">
        <ele>580.77</ele>
        <time>2021-05-07T08:00:40Z</time>
      </trkpt>
      <trkpt lat="44.70179" lon="5.21013">
        <ele>582.7</ele>
        <time>2021-05-07T08:00:48Z</time>
      </trkpt>
      <trkpt lat="44.70175" lon="5.21025">
        <ele>583.66</ele>
        <time>2021-05-07T08:00:57Z</time>
      </trkpt>
      <trkpt lat="44.70174" lon="5.2103">
        <ele>585.1</ele>
        <time>2021-05-07T08:01:04Z</time>
      </trkpt>
      <trkpt lat="44.70187" lon="5.21021">
        <ele>587.02</ele>
        <time>2021-05-07T08:01:19Z</time>
      </trkpt>
      <trkpt lat="44.70191" lon="5.21018">
        <ele>587.5</ele>
        <time>2021-05-07T08:01:31Z</time>
      </trkpt>
      <trkpt lat="44.70194" lon="5.21016">
        <ele>588.46</ele>
        <time>2021-05-07T08:01:34Z</time>
      </trkpt>
      <trkpt lat="44.702" lon="5.21011">
        <ele>589.43</ele>
        <time>2021-05-07T08:01:42Z</time>
      </trkpt>
      <trkpt lat="44.70207" lon="5.21006">
        <ele>590.39</ele>
        <time>2021-05-07T08:01:49Z</time>
      </trkpt>
      <trkpt lat="44.70213" lon="5.20998">
        <ele>591.35</ele>
        <time>2021-05-07T08:01:56Z</time>
      </trkpt>
      <trkpt lat="44.70216" lon="5.20996">
        <ele>591.35</ele>
        <time>2021-05-07T08:01:58Z</time>
      </trkpt>
      <trkpt lat="44.70221" lon="5.20992">
        <ele>593.27</ele>
        <time>2021-05-07T08:02:07Z</time>
      </trkpt>
      <trkpt lat="44.7023" lon="5.20984">
        <ele>594.23</ele>
        <time>2021-05-07T08:02:14Z</time>
      </trkpt>
      <trkpt lat="44.70245" lon="5.20968">
        <ele>595.67</ele>
        <time>2021-05-07T08:02:26Z</time>
      </trkpt>
      <trkpt lat="44.70255" lon="5.2095">
        <ele>597.12</ele>
        <time>2021-05-07T08:02:37Z</time>
      </trkpt>
      <trkpt lat="44.70256" lon="5.20949">
        <ele>597.12</ele>
        <time>2021-05-07T08:02:38Z</time>
      </trkpt>
      <trkpt lat="44.70257" lon="5.2094">
        <ele>598.56</ele>
        <time>2021-05-07T08:02:45Z</time>
      </trkpt>
      <trkpt lat="44.70257" lon="5.20929">
        <ele>599.52</ele>
        <time>2021-05-07T08:02:51Z</time>
      </trkpt>
      <trkpt lat="44.70255" lon="5.20921">
        <ele>599.52</ele>
        <time>2021-05-07T08:02:55Z</time>
      </trkpt>
      <trkpt lat="44.70252" lon="5.20902">
        <ele>601.44</ele>
        <time>2021-05-07T08:03:09Z</time>
      </trkpt>
      <trkpt lat="44.70248" lon="5.20884">
        <ele>603.85</ele>
        <time>2021-05-07T08:03:22Z</time>
      </trkpt>
      <trkpt lat="44.70246" lon="5.20877">
        <ele>604.33</ele>
        <time>2021-05-07T08:03:29Z</time>
      </trkpt>
      <trkpt lat="44.70239" lon="5.20855">
        <ele>606.25</ele>
        <time>2021-05-07T08:03:42Z</time>
      </trkpt>
      <trkpt lat="44.70235" lon="5.20844">
        <ele>606.73</ele>
        <time>2021-05-07T08:03:48Z</time>
      </trkpt>
      <trkpt lat="44.70233" lon="5.20831">
        <ele>608.17</ele>
        <time>2021-05-07T08:03:56Z</time>
      </trkpt>
      <trkpt lat="44.70231" lon="5.20818">
        <ele>609.61</ele>
        <time>2021-05-07T08:04:04Z</time>
      </trkpt>
      <trkpt lat="44.7023" lon="5.2081">
        <ele>610.57</ele>
        <time>2021-05-07T08:04:10Z</time>
      </trkpt>
      <trkpt lat="44.7023" lon="5.20797">
        <ele>611.54</ele>
        <time>2021-05-07T08:04:17Z</time>
      </trkpt>
      <trkpt lat="44.70233" lon="5.20788">
        <ele>612.5</ele>
        <time>2021-05-07T08:04:22Z</time>
      </trkpt>
      <trkpt lat="44.70238" lon="5.20783">
        <ele>614.9</ele>
        <time>2021-05-07T08:04:32Z</time>
      </trkpt>
      <trkpt lat="44.70237" lon="5.20783">
        <ele>615.38</ele>
        <time>2021-05-07T08:04:33Z</time>
      </trkpt>
      <trkpt lat="44.70238" lon="5.20797">
        <ele>616.82</ele>
        <time>2021-05-07T08:04:45Z</time>
      </trkpt>
      <trkpt lat="44.70247" lon="5.20814">
        <ele>618.75</ele>
        <time>2021-05-07T08:04:59Z</time>
      </trkpt>
      <trkpt lat="44.70258" lon="5.20828">
        <ele>620.67</ele>
        <time>2021-05-07T08:05:12Z</time>
      </trkpt>
      <trkpt lat="44.70269" lon="5.20842">
        <ele>622.59</ele>
        <time>2021-05-07T08:05:25Z</time>
      </trkpt>
      <trkpt lat="44.70273" lon="5.20848">
        <ele>623.55</ele>
        <time>2021-05-07T08:05:30Z</time>
      </trkpt>
      <trkpt lat="44.70278" lon="5.20851">
        <ele>624.03</ele>
        <time>2021-05-07T08:05:35Z</time>
      </trkpt>
      <trkpt lat="44.70284" lon="5.20859">
        <ele>625.47</ele>
        <time>2021-05-07T08:05:43Z</time>
      </trkpt>
      <trkpt lat="44.7029" lon="5.20869">
        <ele>626.44</ele>
        <time>2021-05-07T08:05:52Z</time>
      </trkpt>
      <trkpt lat="44.70298" lon="5.20874">
        <ele>629.32</ele>
        <time>2021-05-07T08:06:02Z</time>
      </trkpt>
      <trkpt lat="44.70306" lon="5.20877">
        <ele>632.2</ele>
        <time>2021-05-07T08:06:14Z</time>
      </trkpt>
      <trkpt lat="44.70311" lon="5.2088">
        <ele>634.61</ele>
        <time>2021-05-07T08:06:22Z</time>
      </trkpt>
      <trkpt lat="44.70317" lon="5.20887">
        <ele>637.01</ele>
        <time>2021-05-07T08:06:34Z</time>
      </trkpt>
      <trkpt lat="44.70321" lon="5.20894">
        <ele>638.45</ele>
        <time>2021-05-07T08:06:40Z</time>
      </trkpt>
      <trkpt lat="44.7033" lon="5.20897">
        <ele>641.82</ele>
        <time>2021-05-07T08:06:53Z</time>
      </trkpt>
      <trkpt lat="44.70337" lon="5.20898">
        <ele>644.7</ele>
        <time>2021-05-07T08:07:04Z</time>
      </trkpt>
      <trkpt lat="44.70343" lon="5.20894">
        <ele>646.62</ele>
        <time>2021-05-07T08:07:13Z</time>
      </trkpt>
      <trkpt lat="44.70348" lon="5.20892">
        <ele>649.51</ele>
        <time>2021-05-07T08:07:25Z</time>
      </trkpt>
      <trkpt lat="44.70354" lon="5.20894">
        <ele>652.39</ele>
        <time>2021-05-07T08:07:35Z</time>
      </trkpt>
      <trkpt lat="44.70355" lon="5.20896">
        <ele>654.8</ele>
        <time>2021-05-07T08:07:47Z</time>
      </trkpt>
      <trkpt lat="44.70359" lon="5.20897">
        <ele>658.64</ele>
        <time>2021-05-07T08:07:59Z</time>
      </trkpt>
      <trkpt lat="44.70366" lon="5.20893">
        <ele>660.08</ele>
        <time>2021-05-07T08:08:09Z</time>
      </trkpt>
      <trkpt lat="44.70371" lon="5.20901">
        <ele>662.49</ele>
        <time>2021-05-07T08:08:20Z</time>
      </trkpt>
      <trkpt lat="44.7038" lon="5.20904">
        <ele>666.33</ele>
        <time>2021-05-07T08:08:32Z</time>
      </trkpt>
      <trkpt lat="44.70393" lon="5.20899">
        <ele>668.25</ele>
        <time>2021-05-07T08:08:46Z</time>
      </trkpt>
      <trkpt lat="44.70395" lon="5.20901">
        <ele>669.22</ele>
        <time>2021-05-07T08:08:50Z</time>
      </trkpt>
      <trkpt lat="44.70403" lon="5.20904">
        <ele>673.06</ele>
        <time>2021-05-07T08:09:04Z</time>
      </trkpt>
      <trkpt lat="44.70407" lon="5.20913">
        <ele>674.5</ele>
        <time>2021-05-07T08:09:16Z</time>
      </trkpt>
      <trkpt lat="44.70412" lon="5.20916">
        <ele>677.39</ele>
        <time>2021-05-07T08:09:31Z</time>
      </trkpt>
      <trkpt lat="44.70414" lon="5.20917">
        <ele>677.87</ele>
        <time>2021-05-07T08:09:34Z</time>
      </trkpt>
      <trkpt lat="44.70425" lon="5.20923">
        <ele>681.23</ele>
        <time>2021-05-07T08:09:49Z</time>
      </trkpt>
      <trkpt lat="44.70433" lon="5.2093">
        <ele>683.63</ele>
        <time>2021-05-07T08:10:00Z</time>
      </trkpt>
      <trkpt lat="44.70439" lon="5.20939">
        <ele>686.04</ele>
        <time>2021-05-07T08:10:12Z</time>
      </trkpt>
      <trkpt lat="44.70441" lon="5.20944">
        <ele>686.52</ele>
        <time>2021-05-07T08:10:16Z</time>
      </trkpt>
      <trkpt lat="44.70451" lon="5.20954">
        <ele>689.88</ele>
        <time>2021-05-07T08:10:30Z</time>
      </trkpt>
      <trkpt lat="44.70457" lon="5.20965">
        <ele>692.77</ele>
        <time>2021-05-07T08:10:44Z</time>
      </trkpt>
      <trkpt lat="44.70464" lon="5.20977">
        <ele>695.65</ele>
        <time>2021-05-07T08:10:55Z</time>
      </trkpt>
      <trkpt lat="44.70465" lon="5.20981">
        <ele>697.09</ele>
        <time>2021-05-07T08:10:59Z</time>
      </trkpt>
      <trkpt lat="44.70472" lon="5.20989">
        <ele>699.02</ele>
        <time>2021-05-07T08:11:12Z</time>
      </trkpt>
      <trkpt lat="44.70472" lon="5.20989">
        <ele>700.46</ele>
        <time>2021-05-07T08:11:17Z</time>
      </trkpt>
      <trkpt lat="44.70472" lon="5.20993">
        <ele>701.9</ele>
        <time>2021-05-07T08:11:21Z</time>
      </trkpt>
      <trkpt lat="44.70467" lon="5.21003">
        <ele>703.82</ele>
        <time>2021-05-07T08:11:33Z</time>
      </trkpt>
      <trkpt lat="44.70464" lon="5.21018">
        <ele>707.19</ele>
        <time>2021-05-07T08:11:47Z</time>
      </trkpt>
      <trkpt lat="44.70463" lon="5.21021">
        <ele>709.59</ele>
        <time>2021-05-07T08:11:59Z</time>
      </trkpt>
      <trkpt lat="44.70464" lon="5.21031">
        <ele>712.47</ele>
        <time>2021-05-07T08:12:10Z</time>
      </trkpt>
      <trkpt lat="44.70467" lon="5.21033">
        <ele>714.88</ele>
        <time>2021-05-07T08:12:23Z</time>
      </trkpt>
      <trkpt lat="44.70467" lon="5.21033">
        <ele>715.84</ele>
        <time>2021-05-07T08:12:24Z</time>
      </trkpt>
      <trkpt lat="44.70467" lon="5.21037">
        <ele>716.32</ele>
        <time>2021-05-07T08:12:28Z</time>
      </trkpt>
      <trkpt lat="44.70471" lon="5.21054">
        <ele>719.68</ele>
        <time>2021-05-07T08:12:40Z</time>
      </trkpt>
      <trkpt lat="44.70474" lon="5.21072">
        <ele>722.57</ele>
        <time>2021-05-07T08:12:54Z</time>
      </trkpt>
      <trkpt lat="44.70474" lon="5.21079">
        <ele>725.45</ele>
        <time>2021-05-07T08:13:05Z</time>
      </trkpt>
      <trkpt lat="44.70473" lon="5.21087">
        <ele>726.89</ele>
        <time>2021-05-07T08:13:10Z</time>
      </trkpt>
      <trkpt lat="44.70469" lon="5.21098">
        <ele>727.86</ele>
        <time>2021-05-07T08:13:18Z</time>
      </trkpt>
      <trkpt lat="44.70464" lon="5.21109">
        <ele>730.74</ele>
        <time>2021-05-07T08:13:31Z</time>
      </trkpt>
      <trkpt lat="44.70457" lon="5.21127">
        <ele>731.7</ele>
        <time>2021-05-07T08:13:44Z</time>
      </trkpt>
      <trkpt lat="44.70455" lon="5.21134">
        <ele>733.14</ele>
        <time>2021-05-07T08:13:49Z</time>
      </trkpt>
      <trkpt lat="44.70447" lon="5.2115">
        <ele>735.07</ele>
        <time>2021-05-07T08:14:03Z</time>
      </trkpt>
      <trkpt lat="44.70443" lon="5.2116">
        <ele>736.51</ele>
        <time>2021-05-07T08:14:17Z</time>
      </trkpt>
      <trkpt lat="44.70443" lon="5.2116">
        <ele>736.51</ele>
        <time>2021-05-07T08:14:40Z</time>
      </trkpt>
      <trkpt lat="44.70443" lon="5.21162">
        <ele>736.03</ele>
        <time>2021-05-07T08:15:00Z</time>
      </trkpt>
      <trkpt lat="44.70441" lon="5.21167">
        <ele>736.99</ele>
        <time>2021-05-07T08:15:12Z</time>
      </trkpt>
      <trkpt lat="44.70439" lon="5.2117">
        <ele>737.47</ele>
        <time>2021-05-07T08:15:35Z</time>
      </trkpt>
      <trkpt lat="44.70434" lon="5.21181">
        <ele>738.91</ele>
        <time>2021-05-07T08:15:47Z</time>
      </trkpt>
      <trkpt lat="44.70433" lon="5.21183">
        <ele>739.39</ele>
        <time>2021-05-07T08:16:07Z</time>
      </trkpt>
      <trkpt lat="44.70432" lon="5.21186">
        <ele>739.87</ele>
        <time>2021-05-07T08:16:24Z</time>
      </trkpt>
      <trkpt lat="44.70429" lon="5.21188">
        <ele>740.83</ele>
        <time>2021-05-07T08:16:43Z</time>
      </trkpt>
      <trkpt lat="44.7043" lon="5.21189">
        <ele>741.31</ele>
        <time>2021-05-07T08:16:44Z</time>
      </trkpt>
      <trkpt lat="44.70432" lon="5.21204">
        <ele>742.76</ele>
        <time>2021-05-07T08:16:54Z</time>
      </trkpt>
      <trkpt lat="44.70435" lon="5.21208">
        <ele>743.24</ele>
        <time>2021-05-07T08:16:57Z</time>
      </trkpt>
      <trkpt lat="44.70433" lon="5.2122">
        <ele>744.68</ele>
        <time>2021-05-07T08:17:05Z</time>
      </trkpt>
      <trkpt lat="44.70421" lon="5.21224">
        <ele>743.24</ele>
        <time>2021-05-07T08:17:16Z</time>
      </trkpt>
      <trkpt lat="44.70421" lon="5.21224">
        <ele>743.24</ele>
        <time>2021-05-07T08:17:38Z</time>
      </trkpt>
      <trkpt lat="44.70421" lon="5.21224">
        <ele>743.24</ele>
        <time>2021-05-07T08:17:55Z</time>
      </trkpt>
      <trkpt lat="44.7042" lon="5.21226">
        <ele>743.72</ele>
        <time>2021-05-07T08:17:58Z</time>
      </trkpt>
      <trkpt lat="44.70419" lon="5.21234">
        <ele>743.72</ele>
        <time>2021-05-07T08:18:02Z</time>
      </trkpt>
      <trkpt lat="44.70418" lon="5.21239">
        <ele>744.2</ele>
        <time>2021-05-07T08:18:04Z</time>
      </trkpt>
      <trkpt lat="44.70414" lon="5.21244">
        <ele>743.72</ele>
        <time>2021-05-07T08:18:08Z</time>
      </trkpt>
      <trkpt lat="44.70395" lon="5.21245">
        <ele>742.76</ele>
        <time>2021-05-07T08:18:21Z</time>
      </trkpt>
      <trkpt lat="44.70385" lon="5.21246">
        <ele>740.83</ele>
        <time>2021-05-07T08:18:33Z</time>
      </trkpt>
      <trkpt lat="44.70385" lon="5.21246">
        <ele>740.83</ele>
        <time>2021-05-07T08:18:53Z</time>
      </trkpt>
      <trkpt lat="44.70382" lon="5.21247">
        <ele>740.83</ele>
        <time>2021-05-07T08:18:56Z</time>
      </trkpt>
      <trkpt lat="44.70376" lon="5.21247">
        <ele>739.87</ele>
        <time>2021-05-07T08:19:02Z</time>
      </trkpt>
      <trkpt lat="44.70361" lon="5.21242">
        <ele>737.47</ele>
        <time>2021-05-07T08:19:14Z</time>
      </trkpt>
      <trkpt lat="44.70358" lon="5.21241">
        <ele>736.99</ele>
        <time>2021-05-07T08:19:16Z</time>
      </trkpt>
      <trkpt lat="44.70355" lon="5.21229">
        <ele>735.07</ele>
        <time>2021-05-07T08:19:24Z</time>
      </trkpt>
      <trkpt lat="44.70351" lon="5.21218">
        <ele>733.62</ele>
        <time>2021-05-07T08:19:33Z</time>
      </trkpt>
      <trkpt lat="44.70353" lon="5.21213">
        <ele>732.66</ele>
        <time>2021-05-07T08:19:45Z</time>
      </trkpt>
      <trkpt lat="44.70353" lon="5.21214">
        <ele>732.18</ele>
        <time>2021-05-07T08:20:10Z</time>
      </trkpt>
      <trkpt lat="44.70353" lon="5.21215">
        <ele>732.66</ele>
        <time>2021-05-07T08:20:23Z</time>
      </trkpt>
      <trkpt lat="44.70353" lon="5.21219">
        <ele>732.18</ele>
        <time>2021-05-07T08:20:38Z</time>
      </trkpt>
      <trkpt lat="44.70353" lon="5.2122">
        <ele>733.14</ele>
        <time>2021-05-07T08:20:39Z</time>
      </trkpt>
      <trkpt lat="44.70355" lon="5.21236">
        <ele>735.07</ele>
        <time>2021-05-07T08:20:48Z</time>
      </trkpt>
      <trkpt lat="44.70357" lon="5.21245">
        <ele>736.51</ele>
        <time>2021-05-07T08:20:53Z</time>
      </trkpt>
      <trkpt lat="44.70362" lon="5.21248">
        <ele>737.47</ele>
        <time>2021-05-07T08:20:58Z</time>
      </trkpt>
      <trkpt lat="44.70379" lon="5.21251">
        <ele>740.35</ele>
        <time>2021-05-07T08:21:09Z</time>
      </trkpt>
      <trkpt lat="44.7039" lon="5.21247">
        <ele>741.79</ele>
        <time>2021-05-07T08:21:20Z</time>
      </trkpt>
      <trkpt lat="44.70392" lon="5.21247">
        <ele>742.28</ele>
        <time>2021-05-07T08:21:22Z</time>
      </trkpt>
      <trkpt lat="44.70395" lon="5.21246">
        <ele>743.24</ele>
        <time>2021-05-07T08:21:25Z</time>
      </trkpt>
      <trkpt lat="44.70402" lon="5.21245">
        <ele>743.72</ele>
        <time>2021-05-07T08:21:29Z</time>
      </trkpt>
      <trkpt lat="44.70424" lon="5.21242">
        <ele>745.64</ele>
        <time>2021-05-07T08:21:42Z</time>
      </trkpt>
      <trkpt lat="44.70444" lon="5.21229">
        <ele>747.08</ele>
        <time>2021-05-07T08:21:54Z</time>
      </trkpt>
      <trkpt lat="44.70445" lon="5.21223">
        <ele>746.6</ele>
        <time>2021-05-07T08:21:57Z</time>
      </trkpt>
      <trkpt lat="44.70443" lon="5.21217">
        <ele>746.6</ele>
        <time>2021-05-07T08:22:02Z</time>
      </trkpt>
      <trkpt lat="44.70436" lon="5.212">
        <ele>743.24</ele>
        <time>2021-05-07T08:22:14Z</time>
      </trkpt>
      <trkpt lat="44.70434" lon="5.21186">
        <ele>740.35</ele>
        <time>2021-05-07T08:22:25Z</time>
      </trkpt>
      <trkpt lat="44.70435" lon="5.21179">
        <ele>739.39</ele>
        <time>2021-05-07T08:22:29Z</time>
      </trkpt>
      <trkpt lat="44.70444" lon="5.21156">
        <ele>736.51</ele>
        <time>2021-05-07T08:22:42Z</time>
      </trkpt>
      <trkpt lat="44.70446" lon="5.21152">
        <ele>736.51</ele>
        <time>2021-05-07T08:22:45Z</time>
      </trkpt>
      <trkpt lat="44.70448" lon="5.21147">
        <ele>736.03</ele>
        <time>2021-05-07T08:22:48Z</time>
      </trkpt>
      <trkpt lat="44.70459" lon="5.21133">
        <ele>733.62</ele>
        <time>2021-05-07T08:22:57Z</time>
      </trkpt>
      <trkpt lat="44.70462" lon="5.21126">
        <ele>732.18</ele>
        <time>2021-05-07T08:23:02Z</time>
      </trkpt>
      <trkpt lat="44.70464" lon="5.21118">
        <ele>731.22</ele>
        <time>2021-05-07T08:23:07Z</time>
      </trkpt>
      <trkpt lat="44.70466" lon="5.21113">
        <ele>730.74</ele>
        <time>2021-05-07T08:23:10Z</time>
      </trkpt>
      <trkpt lat="44.70472" lon="5.211">
        <ele>728.34</ele>
        <time>2021-05-07T08:23:20Z</time>
      </trkpt>
      <trkpt lat="44.70476" lon="5.21087">
        <ele>724.97</ele>
        <time>2021-05-07T08:23:30Z</time>
      </trkpt>
      <trkpt lat="44.70477" lon="5.21084">
        <ele>724.49</ele>
        <time>2021-05-07T08:23:32Z</time>
      </trkpt>
      <trkpt lat="44.70477" lon="5.21079">
        <ele>723.05</ele>
        <time>2021-05-07T08:23:35Z</time>
      </trkpt>
      <trkpt lat="44.70478" lon="5.21067">
        <ele>721.13</ele>
        <time>2021-05-07T08:23:42Z</time>
      </trkpt>
      <trkpt lat="44.70476" lon="5.21066">
        <ele>720.16</ele>
        <time>2021-05-07T08:23:44Z</time>
      </trkpt>
      <trkpt lat="44.70471" lon="5.21052">
        <ele>716.8</ele>
        <time>2021-05-07T08:23:55Z</time>
      </trkpt>
      <trkpt lat="44.70467" lon="5.21044">
        <ele>713.44</ele>
        <time>2021-05-07T08:24:06Z</time>
      </trkpt>
      <trkpt lat="44.70468" lon="5.21041">
        <ele>712.95</ele>
        <time>2021-05-07T08:24:09Z</time>
      </trkpt>
      <trkpt lat="44.70467" lon="5.21036">
        <ele>711.51</ele>
        <time>2021-05-07T08:24:12Z</time>
      </trkpt>
      <trkpt lat="44.7047" lon="5.21022">
        <ele>708.15</ele>
        <time>2021-05-07T08:24:24Z</time>
      </trkpt>
      <trkpt lat="44.70473" lon="5.21006">
        <ele>704.78</ele>
        <time>2021-05-07T08:24:36Z</time>
      </trkpt>
      <trkpt lat="44.70474" lon="5.20992">
        <ele>701.42</ele>
        <time>2021-05-07T08:24:46Z</time>
      </trkpt>
      <trkpt lat="44.70472" lon="5.20992">
        <ele>700.94</ele>
        <time>2021-05-07T08:24:47Z</time>
      </trkpt>
      <trkpt lat="44.70468" lon="5.20988">
        <ele>699.5</ele>
        <time>2021-05-07T08:24:52Z</time>
      </trkpt>
      <trkpt lat="44.70466" lon="5.20974">
        <ele>695.65</ele>
        <time>2021-05-07T08:25:01Z</time>
      </trkpt>
      <trkpt lat="44.70464" lon="5.20967">
        <ele>692.77</ele>
        <time>2021-05-07T08:25:08Z</time>
      </trkpt>
      <trkpt lat="44.70464" lon="5.20967">
        <ele>696.13</ele>
        <time>2021-05-07T08:25:09Z</time>
      </trkpt>
      <trkpt lat="44.70461" lon="5.20962">
        <ele>693.25</ele>
        <time>2021-05-07T08:25:14Z</time>
      </trkpt>
      <trkpt lat="44.70457" lon="5.20958">
        <ele>689.88</ele>
        <time>2021-05-07T08:25:18Z</time>
      </trkpt>
      <trkpt lat="44.70456" lon="5.20958">
        <ele>693.25</ele>
        <time>2021-05-07T08:25:19Z</time>
      </trkpt>
      <trkpt lat="44.70453" lon="5.20954">
        <ele>689.88</ele>
        <time>2021-05-07T08:25:24Z</time>
      </trkpt>
      <trkpt lat="44.7045" lon="5.20947">
        <ele>687</ele>
        <time>2021-05-07T08:25:34Z</time>
      </trkpt>
      <trkpt lat="44.7045" lon="5.20945">
        <ele>686.52</ele>
        <time>2021-05-07T08:25:35Z</time>
      </trkpt>
      <trkpt lat="44.70448" lon="5.20941">
        <ele>685.56</ele>
        <time>2021-05-07T08:25:37Z</time>
      </trkpt>
      <trkpt lat="44.70437" lon="5.20928">
        <ele>682.19</ele>
        <time>2021-05-07T08:25:48Z</time>
      </trkpt>
      <trkpt lat="44.70436" lon="5.20927">
        <ele>682.19</ele>
        <time>2021-05-07T08:25:49Z</time>
      </trkpt>
      <trkpt lat="44.70434" lon="5.20924">
        <ele>681.23</ele>
        <time>2021-05-07T08:25:52Z</time>
      </trkpt>
      <trkpt lat="44.70428" lon="5.20921">
        <ele>679.79</ele>
        <time>2021-05-07T08:25:56Z</time>
      </trkpt>
      <trkpt lat="44.70417" lon="5.20917">
        <ele>677.39</ele>
        <time>2021-05-07T08:26:09Z</time>
      </trkpt>
      <trkpt lat="44.70414" lon="5.20912">
        <ele>675.46</ele>
        <time>2021-05-07T08:26:15Z</time>
      </trkpt>
      <trkpt lat="44.70412" lon="5.20903">
        <ele>674.5</ele>
        <time>2021-05-07T08:26:20Z</time>
      </trkpt>
      <trkpt lat="44.70407" lon="5.209">
        <ele>673.54</ele>
        <time>2021-05-07T08:26:23Z</time>
      </trkpt>
      <trkpt lat="44.70399" lon="5.20897">
        <ele>670.18</ele>
        <time>2021-05-07T08:26:35Z</time>
      </trkpt>
      <trkpt lat="44.70396" lon="5.20897">
        <ele>669.7</ele>
        <time>2021-05-07T08:26:38Z</time>
      </trkpt>
      <trkpt lat="44.70383" lon="5.20901">
        <ele>665.85</ele>
        <time>2021-05-07T08:26:50Z</time>
      </trkpt>
      <trkpt lat="44.70379" lon="5.20894">
        <ele>662.97</ele>
        <time>2021-05-07T08:27:02Z</time>
      </trkpt>
      <trkpt lat="44.70371" lon="5.20899">
        <ele>659.6</ele>
        <time>2021-05-07T08:27:13Z</time>
      </trkpt>
      <trkpt lat="44.70367" lon="5.20898">
        <ele>658.16</ele>
        <time>2021-05-07T08:27:19Z</time>
      </trkpt>
      <trkpt lat="44.70364" lon="5.20893">
        <ele>655.76</ele>
        <time>2021-05-07T08:27:28Z</time>
      </trkpt>
      <trkpt lat="44.70358" lon="5.2089">
        <ele>653.35</ele>
        <time>2021-05-07T08:27:37Z</time>
      </trkpt>
      <trkpt lat="44.7035" lon="5.20891">
        <ele>650.47</ele>
        <time>2021-05-07T08:27:46Z</time>
      </trkpt>
      <trkpt lat="44.70344" lon="5.20895">
        <ele>648.07</ele>
        <time>2021-05-07T08:27:55Z</time>
      </trkpt>
      <trkpt lat="44.70341" lon="5.20893">
        <ele>646.14</ele>
        <time>2021-05-07T08:27:59Z</time>
      </trkpt>
      <trkpt lat="44.70335" lon="5.20895">
        <ele>643.26</ele>
        <time>2021-05-07T08:28:09Z</time>
      </trkpt>
      <trkpt lat="44.70329" lon="5.20887">
        <ele>640.38</ele>
        <time>2021-05-07T08:28:22Z</time>
      </trkpt>
      <trkpt lat="44.70323" lon="5.20881">
        <ele>638.93</ele>
        <time>2021-05-07T08:28:29Z</time>
      </trkpt>
      <trkpt lat="44.70315" lon="5.20878">
        <ele>636.53</ele>
        <time>2021-05-07T08:28:36Z</time>
      </trkpt>
      <trkpt lat="44.70307" lon="5.20874">
        <ele>633.65</ele>
        <time>2021-05-07T08:28:45Z</time>
      </trkpt>
      <trkpt lat="44.703" lon="5.20873">
        <ele>630.76</ele>
        <time>2021-05-07T08:28:54Z</time>
      </trkpt>
      <trkpt lat="44.70297" lon="5.20871">
        <ele>630.28</ele>
        <time>2021-05-07T08:28:57Z</time>
      </trkpt>
      <trkpt lat="44.70283" lon="5.20857">
        <ele>628.84</ele>
        <time>2021-05-07T08:29:06Z</time>
      </trkpt>
      <trkpt lat="44.70277" lon="5.20849">
        <ele>627.88</ele>
        <time>2021-05-07T08:29:12Z</time>
      </trkpt>
      <trkpt lat="44.70267" lon="5.20837">
        <ele>625.96</ele>
        <time>2021-05-07T08:29:25Z</time>
      </trkpt>
      <trkpt lat="44.70251" lon="5.20817">
        <ele>623.07</ele>
        <time>2021-05-07T08:29:39Z</time>
      </trkpt>
      <trkpt lat="44.70246" lon="5.20808">
        <ele>622.11</ele>
        <time>2021-05-07T08:29:44Z</time>
      </trkpt>
      <trkpt lat="44.7024" lon="5.20794">
        <ele>621.15</ele>
        <time>2021-05-07T08:29:52Z</time>
      </trkpt>
      <trkpt lat="44.70233" lon="5.20777">
        <ele>617.78</ele>
        <time>2021-05-07T08:30:05Z</time>
      </trkpt>
      <trkpt lat="44.70228" lon="5.20787">
        <ele>615.86</ele>
        <time>2021-05-07T08:30:14Z</time>
      </trkpt>
      <trkpt lat="44.70227" lon="5.20804">
        <ele>614.42</ele>
        <time>2021-05-07T08:30:22Z</time>
      </trkpt>
      <trkpt lat="44.70227" lon="5.20821">
        <ele>612.5</ele>
        <time>2021-05-07T08:30:30Z</time>
      </trkpt>
      <trkpt lat="44.70226" lon="5.20825">
        <ele>612.02</ele>
        <time>2021-05-07T08:30:32Z</time>
      </trkpt>
      <trkpt lat="44.70227" lon="5.20839">
        <ele>611.54</ele>
        <time>2021-05-07T08:30:37Z</time>
      </trkpt>
      <trkpt lat="44.70235" lon="5.20864">
        <ele>608.65</ele>
        <time>2021-05-07T08:30:51Z</time>
      </trkpt>
      <trkpt lat="44.70241" lon="5.20881">
        <ele>606.73</ele>
        <time>2021-05-07T08:31:03Z</time>
      </trkpt>
      <trkpt lat="44.70242" lon="5.20883">
        <ele>606.73</ele>
        <time>2021-05-07T08:31:04Z</time>
      </trkpt>
      <trkpt lat="44.70244" lon="5.20893">
        <ele>605.77</ele>
        <time>2021-05-07T08:31:08Z</time>
      </trkpt>
      <trkpt lat="44.70252" lon="5.20913">
        <ele>603.85</ele>
        <time>2021-05-07T08:31:20Z</time>
      </trkpt>
      <trkpt lat="44.70252" lon="5.20929">
        <ele>602.4</ele>
        <time>2021-05-07T08:31:29Z</time>
      </trkpt>
      <trkpt lat="44.70252" lon="5.2094">
        <ele>600.96</ele>
        <time>2021-05-07T08:31:35Z</time>
      </trkpt>
      <trkpt lat="44.7025" lon="5.20943">
        <ele>600.96</ele>
        <time>2021-05-07T08:31:37Z</time>
      </trkpt>
      <trkpt lat="44.70247" lon="5.20948">
        <ele>600.48</ele>
        <time>2021-05-07T08:31:41Z</time>
      </trkpt>
      <trkpt lat="44.70243" lon="5.20955">
        <ele>600</ele>
        <time>2021-05-07T08:31:45Z</time>
      </trkpt>
      <trkpt lat="44.70241" lon="5.20958">
        <ele>599.52</ele>
        <time>2021-05-07T08:31:47Z</time>
      </trkpt>
      <trkpt lat="44.70236" lon="5.20964">
        <ele>598.56</ele>
        <time>2021-05-07T08:31:51Z</time>
      </trkpt>
      <trkpt lat="44.7022" lon="5.20983">
        <ele>596.15</ele>
        <time>2021-05-07T08:32:05Z</time>
      </trkpt>
      <trkpt lat="44.70219" lon="5.20984">
        <ele>596.15</ele>
        <time>2021-05-07T08:32:08Z</time>
      </trkpt>
      <trkpt lat="44.70207" lon="5.20994">
        <ele>594.71</ele>
        <time>2021-05-07T08:32:19Z</time>
      </trkpt>
      <trkpt lat="44.70204" lon="5.20996">
        <ele>594.23</ele>
        <time>2021-05-07T08:32:22Z</time>
      </trkpt>
      <trkpt lat="44.70189" lon="5.21009">
        <ele>591.35</ele>
        <time>2021-05-07T08:32:35Z</time>
      </trkpt>
      <trkpt lat="44.70186" lon="5.21012">
        <ele>590.87</ele>
        <time>2021-05-07T08:32:46Z</time>
      </trkpt>
      <trkpt lat="44.70186" lon="5.21012">
        <ele>590.87</ele>
        <time>2021-05-07T08:33:09Z</time>
      </trkpt>
      <trkpt lat="44.70187" lon="5.21012">
        <ele>590.87</ele>
        <time>2021-05-07T08:33:41Z</time>
      </trkpt>
      <trkpt lat="44.70187" lon="5.21012">
        <ele>590.87</ele>
        <time>2021-05-07T08:34:20Z</time>
      </trkpt>
      <trkpt lat="44.70187" lon="5.21012">
        <ele>591.35</ele>
        <time>2021-05-07T08:34:56Z</time>
      </trkpt>
      <trkpt lat="44.70182" lon="5.21016">
        <ele>590.39</ele>
        <time>2021-05-07T08:35:17Z</time>
      </trkpt>
      <trkpt lat="44.70172" lon="5.21026">
        <ele>588.46</ele>
        <time>2021-05-07T08:35:28Z</time>
      </trkpt>
      <trkpt lat="44.70175" lon="5.21017">
        <ele>586.54</ele>
        <time>2021-05-07T08:35:38Z</time>
      </trkpt>
      <trkpt lat="44.70176" lon="5.21015">
        <ele>586.54</ele>
        <time>2021-05-07T08:35:40Z</time>
      </trkpt>
      <trkpt lat="44.70183" lon="5.20999">
        <ele>583.66</ele>
        <time>2021-05-07T08:35:54Z</time>
      </trkpt>
      <trkpt lat="44.70193" lon="5.20975">
        <ele>581.73</ele>
        <time>2021-05-07T08:36:09Z</time>
      </trkpt>
      <trkpt lat="44.70195" lon="5.20969">
        <ele>581.25</ele>
        <time>2021-05-07T08:36:13Z</time>
      </trkpt>
      <trkpt lat="44.70207" lon="5.20944">
        <ele>578.37</ele>
        <time>2021-05-07T08:36:25Z</time>
      </trkpt>
      <trkpt lat="44.70208" lon="5.20936">
        <ele>577.89</ele>
        <time>2021-05-07T08:36:29Z</time>
      </trkpt>
      <trkpt lat="44.70192" lon="5.20918">
        <ele>575.49</ele>
        <time>2021-05-07T08:36:42Z</time>
      </trkpt>
      <trkpt lat="44.70189" lon="5.20915">
        <ele>575.01</ele>
        <time>2021-05-07T08:36:44Z</time>
      </trkpt>
      <trkpt lat="44.70183" lon="5.20907">
        <ele>574.04</ele>
        <time>2021-05-07T08:36:50Z</time>
      </trkpt>
      <trkpt lat="44.70178" lon="5.20899">
        <ele>572.6</ele>
        <time>2021-05-07T08:36:55Z</time>
      </trkpt>
      <trkpt lat="44.70162" lon="5.20886">
        <ele>570.2</ele>
        <time>2021-05-07T08:37:06Z</time>
      </trkpt>
      <trkpt lat="44.70158" lon="5.20882">
        <ele>570.68</ele>
        <time>2021-05-07T08:37:09Z</time>
      </trkpt>
      <trkpt lat="44.70148" lon="5.20868">
        <ele>567.8</ele>
        <time>2021-05-07T08:37:21Z</time>
      </trkpt>
      <trkpt lat="44.70136" lon="5.20846">
        <ele>564.43</ele>
        <time>2021-05-07T08:37:35Z</time>
      </trkpt>
      <trkpt lat="44.70129" lon="5.20827">
        <ele>562.03</ele>
        <time>2021-05-07T08:37:48Z</time>
      </trkpt>
      <trkpt lat="44.70121" lon="5.20811">
        <ele>559.62</ele>
        <time>2021-05-07T08:38:01Z</time>
      </trkpt>
      <trkpt lat="44.7012" lon="5.20805">
        <ele>558.66</ele>
        <time>2021-05-07T08:38:18Z</time>
      </trkpt>
      <trkpt lat="44.70119" lon="5.20801">
        <ele>558.18</ele>
        <time>2021-05-07T08:38:37Z</time>
      </trkpt>
      <trkpt lat="44.70118" lon="5.20795">
        <ele>557.7</ele>
        <time>2021-05-07T08:38:53Z</time>
      </trkpt>
      <trkpt lat="44.70118" lon="5.20792">
        <ele>557.7</ele>
        <time>2021-05-07T08:38:55Z</time>
      </trkpt>
      <trkpt lat="44.70116" lon="5.20782">
        <ele>557.22</ele>
        <time>2021-05-07T08:38:59Z</time>
      </trkpt>
      <trkpt lat="44.70112" lon="5.20762">
        <ele>555.3</ele>
        <time>2021-05-07T08:39:11Z</time>
      </trkpt>
      <trkpt lat="44.70111" lon="5.20737">
        <ele>552.41</ele>
        <time>2021-05-07T08:39:26Z</time>
      </trkpt>
      <trkpt lat="44.70105" lon="5.20721">
        <ele>550.49</ele>
        <time>2021-05-07T08:39:39Z</time>
      </trkpt>
      <trkpt lat="44.70104" lon="5.20719">
        <ele>550.49</ele>
        <time>2021-05-07T08:39:41Z</time>
      </trkpt>
      <trkpt lat="44.70104" lon="5.20712">
        <ele>549.53</ele>
        <time>2021-05-07T08:39:44Z</time>
      </trkpt>
      <trkpt lat="44.70101" lon="5.20685">
        <ele>547.13</ele>
        <time>2021-05-07T08:39:58Z</time>
      </trkpt>
      <trkpt lat="44.701" lon="5.20683">
        <ele>547.13</ele>
        <time>2021-05-07T08:39:59Z</time>
      </trkpt>
      <trkpt lat="44.70101" lon="5.20653">
        <ele>544.72</ele>
        <time>2021-05-07T08:40:11Z</time>
      </trkpt>
      <trkpt lat="44.70101" lon="5.20643">
        <ele>543.28</ele>
        <time>2021-05-07T08:40:18Z</time>
      </trkpt>
      <trkpt lat="44.70095" lon="5.20651">
        <ele>541.84</ele>
        <time>2021-05-07T08:40:22Z</time>
      </trkpt>
      <trkpt lat="44.7009" lon="5.20666">
        <ele>540.4</ele>
        <time>2021-05-07T08:40:29Z</time>
      </trkpt>
      <trkpt lat="44.70088" lon="5.20677">
        <ele>538.96</ele>
        <time>2021-05-07T08:40:38Z</time>
      </trkpt>
      <trkpt lat="44.70085" lon="5.20686">
        <ele>537.51</ele>
        <time>2021-05-07T08:40:43Z</time>
      </trkpt>
      <trkpt lat="44.70075" lon="5.20706">
        <ele>535.59</ele>
        <time>2021-05-07T08:40:52Z</time>
      </trkpt>
      <trkpt lat="44.70075" lon="5.20714">
        <ele>534.63</ele>
        <time>2021-05-07T08:40:55Z</time>
      </trkpt>
      <trkpt lat="44.70072" lon="5.2073">
        <ele>532.71</ele>
        <time>2021-05-07T08:41:06Z</time>
      </trkpt>
      <trkpt lat="44.70066" lon="5.2075">
        <ele>530.79</ele>
        <time>2021-05-07T08:41:16Z</time>
      </trkpt>
      <trkpt lat="44.7006" lon="5.20769">
        <ele>529.34</ele>
        <time>2021-05-07T08:41:24Z</time>
      </trkpt>
      <trkpt lat="44.70059" lon="5.20777">
        <ele>528.38</ele>
        <time>2021-05-07T08:41:27Z</time>
      </trkpt>
      <trkpt lat="44.70056" lon="5.20787">
        <ele>527.9</ele>
        <time>2021-05-07T08:41:32Z</time>
      </trkpt>
      <trkpt lat="44.70054" lon="5.20801">
        <ele>525.5</ele>
        <time>2021-05-07T08:41:42Z</time>
      </trkpt>
      <trkpt lat="44.7005" lon="5.20826">
        <ele>523.09</ele>
        <time>2021-05-07T08:41:55Z</time>
      </trkpt>
      <trkpt lat="44.70049" lon="5.20841">
        <ele>521.65</ele>
        <time>2021-05-07T08:42:02Z</time>
      </trkpt>
      <trkpt lat="44.70052" lon="5.20865">
        <ele>520.21</ele>
        <time>2021-05-07T08:42:12Z</time>
      </trkpt>
      <trkpt lat="44.70053" lon="5.20873">
        <ele>519.25</ele>
        <time>2021-05-07T08:42:16Z</time>
      </trkpt>
      <trkpt lat="44.70053" lon="5.20878">
        <ele>518.77</ele>
        <time>2021-05-07T08:42:18Z</time>
      </trkpt>
      <trkpt lat="44.70055" lon="5.20893">
        <ele>516.37</ele>
        <time>2021-05-07T08:42:30Z</time>
      </trkpt>
      <trkpt lat="44.70054" lon="5.20892">
        <ele>516.85</ele>
        <time>2021-05-07T08:42:31Z</time>
      </trkpt>
      <trkpt lat="44.70051" lon="5.20886">
        <ele>515.4</ele>
        <time>2021-05-07T08:42:36Z</time>
      </trkpt>
      <trkpt lat="44.70045" lon="5.20876">
        <ele>513.96</ele>
        <time>2021-05-07T08:42:42Z</time>
      </trkpt>
      <trkpt lat="44.70037" lon="5.20864">
        <ele>512.04</ele>
        <time>2021-05-07T08:42:49Z</time>
      </trkpt>
      <trkpt lat="44.70032" lon="5.20855">
        <ele>510.6</ele>
        <time>2021-05-07T08:42:56Z</time>
      </trkpt>
      <trkpt lat="44.70026" lon="5.20838">
        <ele>508.67</ele>
        <time>2021-05-07T08:43:06Z</time>
      </trkpt>
      <trkpt lat="44.70024" lon="5.20824">
        <ele>508.19</ele>
        <time>2021-05-07T08:43:11Z</time>
      </trkpt>
      <trkpt lat="44.70022" lon="5.20817">
        <ele>506.27</ele>
        <time>2021-05-07T08:43:17Z</time>
      </trkpt>
      <trkpt lat="44.70022" lon="5.2081">
        <ele>505.79</ele>
        <time>2021-05-07T08:43:21Z</time>
      </trkpt>
      <trkpt lat="44.70018" lon="5.20776">
        <ele>503.39</ele>
        <time>2021-05-07T08:43:35Z</time>
      </trkpt>
      <trkpt lat="44.70017" lon="5.20746">
        <ele>500.98</ele>
        <time>2021-05-07T08:43:47Z</time>
      </trkpt>
      <trkpt lat="44.70017" lon="5.2074">
        <ele>499.54</ele>
        <time>2021-05-07T08:43:53Z</time>
      </trkpt>
      <trkpt lat="44.70018" lon="5.20734">
        <ele>499.06</ele>
        <time>2021-05-07T08:43:57Z</time>
      </trkpt>
      <trkpt lat="44.7002" lon="5.20726">
        <ele>498.58</ele>
        <time>2021-05-07T08:44:01Z</time>
      </trkpt>
      <trkpt lat="44.70009" lon="5.20691">
        <ele>495.22</ele>
        <time>2021-05-07T08:44:15Z</time>
      </trkpt>
      <trkpt lat="44.70008" lon="5.20677">
        <ele>493.77</ele>
        <time>2021-05-07T08:44:23Z</time>
      </trkpt>
      <trkpt lat="44.70006" lon="5.20674">
        <ele>492.81</ele>
        <time>2021-05-07T08:44:26Z</time>
      </trkpt>
      <trkpt lat="44.70002" lon="5.2065">
        <ele>490.89</ele>
        <time>2021-05-07T08:44:40Z</time>
      </trkpt>
      <trkpt lat="44.70002" lon="5.20649">
        <ele>490.89</ele>
        <time>2021-05-07T08:44:41Z</time>
      </trkpt>
      <trkpt lat="44.69993" lon="5.20621">
        <ele>488.97</ele>
        <time>2021-05-07T08:44:55Z</time>
      </trkpt>
      <trkpt lat="44.69983" lon="5.20592">
        <ele>486.56</ele>
        <time>2021-05-07T08:45:10Z</time>
      </trkpt>
      <trkpt lat="44.69982" lon="5.20589">
        <ele>486.56</ele>
        <time>2021-05-07T08:45:11Z</time>
      </trkpt>
      <trkpt lat="44.69974" lon="5.2057">
        <ele>484.16</ele>
        <time>2021-05-07T08:45:25Z</time>
      </trkpt>
      <trkpt lat="44.69981" lon="5.20549">
        <ele>481.28</ele>
        <time>2021-05-07T08:45:39Z</time>
      </trkpt>
      <trkpt lat="44.69995" lon="5.20539">
        <ele>478.87</ele>
        <time>2021-05-07T08:45:51Z</time>
      </trkpt>
      <trkpt lat="44.6999" lon="5.20534">
        <ele>476.95</ele>
        <time>2021-05-07T08:45:58Z</time>
      </trkpt>
      <trkpt lat="44.69987" lon="5.20524">
        <ele>474.55</ele>
        <time>2021-05-07T08:46:03Z</time>
      </trkpt>
      <trkpt lat="44.69979" lon="5.20517">
        <ele>471.66</ele>
        <time>2021-05-07T08:46:11Z</time>
      </trkpt>
      <trkpt lat="44.69967" lon="5.20504">
        <ele>468.3</ele>
        <time>2021-05-07T08:46:22Z</time>
      </trkpt>
      <trkpt lat="44.69959" lon="5.20502">
        <ele>466.86</ele>
        <time>2021-05-07T08:46:26Z</time>
      </trkpt>
      <trkpt lat="44.69949" lon="5.20496">
        <ele>464.45</ele>
        <time>2021-05-07T08:46:34Z</time>
      </trkpt>
      <trkpt lat="44.69947" lon="5.20495">
        <ele>463.97</ele>
        <time>2021-05-07T08:46:36Z</time>
      </trkpt>
      <trkpt lat="44.69943" lon="5.20491">
        <ele>462.05</ele>
        <time>2021-05-07T08:46:41Z</time>
      </trkpt>
      <trkpt lat="44.69948" lon="5.20487">
        <ele>458.69</ele>
        <time>2021-05-07T08:46:50Z</time>
      </trkpt>
      <trkpt lat="44.69951" lon="5.20486">
        <ele>457.72</ele>
        <time>2021-05-07T08:46:54Z</time>
      </trkpt>
      <trkpt lat="44.69962" lon="5.20476">
        <ele>454.36</ele>
        <time>2021-05-07T08:47:04Z</time>
      </trkpt>
      <trkpt lat="44.69969" lon="5.20466">
        <ele>451</ele>
        <time>2021-05-07T08:47:14Z</time>
      </trkpt>
      <trkpt lat="44.69968" lon="5.20459">
        <ele>450.52</ele>
        <time>2021-05-07T08:47:21Z</time>
      </trkpt>
      <trkpt lat="44.69969" lon="5.20455">
        <ele>448.59</ele>
        <time>2021-05-07T08:47:23Z</time>
      </trkpt>
      <trkpt lat="44.69966" lon="5.20452">
        <ele>447.63</ele>
        <time>2021-05-07T08:47:25Z</time>
      </trkpt>
      <trkpt lat="44.69962" lon="5.20449">
        <ele>446.67</ele>
        <time>2021-05-07T08:47:29Z</time>
      </trkpt>
      <trkpt lat="44.69957" lon="5.20448">
        <ele>444.75</ele>
        <time>2021-05-07T08:47:35Z</time>
      </trkpt>
      <trkpt lat="44.69965" lon="5.20439">
        <ele>441.38</ele>
        <time>2021-05-07T08:47:45Z</time>
      </trkpt>
      <trkpt lat="44.6997" lon="5.20432">
        <ele>438.5</ele>
        <time>2021-05-07T08:47:54Z</time>
      </trkpt>
      <trkpt lat="44.69967" lon="5.20431">
        <ele>437.06</ele>
        <time>2021-05-07T08:47:57Z</time>
      </trkpt>
      <trkpt lat="44.69961" lon="5.20429">
        <ele>435.61</ele>
        <time>2021-05-07T08:48:02Z</time>
      </trkpt>
      <trkpt lat="44.69951" lon="5.20425">
        <ele>432.25</ele>
        <time>2021-05-07T08:48:13Z</time>
      </trkpt>
      <trkpt lat="44.69951" lon="5.20425">
        <ele>431.29</ele>
        <time>2021-05-07T08:48:15Z</time>
      </trkpt>
      <trkpt lat="44.69946" lon="5.20417">
        <ele>429.37</ele>
        <time>2021-05-07T08:48:20Z</time>
      </trkpt>
      <trkpt lat="44.6994" lon="5.20411">
        <ele>427.92</ele>
        <time>2021-05-07T08:48:24Z</time>
      </trkpt>
      <trkpt lat="44.6993" lon="5.20406">
        <ele>425.52</ele>
        <time>2021-05-07T08:48:35Z</time>
      </trkpt>
      <trkpt lat="44.69926" lon="5.20405">
        <ele>424.08</ele>
        <time>2021-05-07T08:48:38Z</time>
      </trkpt>
      <trkpt lat="44.69923" lon="5.20403">
        <ele>423.6</ele>
        <time>2021-05-07T08:48:40Z</time>
      </trkpt>
      <trkpt lat="44.69917" lon="5.20399">
        <ele>422.64</ele>
        <time>2021-05-07T08:48:42Z</time>
      </trkpt>
      <trkpt lat="44.69908" lon="5.20391">
        <ele>421.19</ele>
        <time>2021-05-07T08:48:48Z</time>
      </trkpt>
      <trkpt lat="44.69908" lon="5.20388">
        <ele>418.31</ele>
        <time>2021-05-07T08:49:01Z</time>
      </trkpt>
      <trkpt lat="44.69903" lon="5.20388">
        <ele>416.87</ele>
        <time>2021-05-07T08:49:06Z</time>
      </trkpt>
      <trkpt lat="44.69883" lon="5.20384">
        <ele>414.95</ele>
        <time>2021-05-07T08:49:16Z</time>
      </trkpt>
      <trkpt lat="44.6987" lon="5.20385">
        <ele>413.98</ele>
        <time>2021-05-07T08:49:23Z</time>
      </trkpt>
      <trkpt lat="44.69862" lon="5.20385">
        <ele>413.02</ele>
        <time>2021-05-07T08:49:27Z</time>
      </trkpt>
      <trkpt lat="44.69858" lon="5.20384">
        <ele>412.54</ele>
        <time>2021-05-07T08:49:29Z</time>
      </trkpt>
      <trkpt lat="44.69866" lon="5.20374">
        <ele>409.66</ele>
        <time>2021-05-07T08:49:41Z</time>
      </trkpt>
      <trkpt lat="44.69874" lon="5.20371">
        <ele>409.18</ele>
        <time>2021-05-07T08:49:46Z</time>
      </trkpt>
      <trkpt lat="44.69896" lon="5.20361">
        <ele>406.29</ele>
        <time>2021-05-07T08:50:01Z</time>
      </trkpt>
      <trkpt lat="44.69908" lon="5.20355">
        <ele>404.37</ele>
        <time>2021-05-07T08:50:09Z</time>
      </trkpt>
      <trkpt lat="44.69913" lon="5.2035">
        <ele>403.41</ele>
        <time>2021-05-07T08:50:13Z</time>
      </trkpt>
      <trkpt lat="44.69915" lon="5.20345">
        <ele>402.93</ele>
        <time>2021-05-07T08:50:15Z</time>
      </trkpt>
      <trkpt lat="44.69914" lon="5.20343">
        <ele>402.45</ele>
        <time>2021-05-07T08:50:17Z</time>
      </trkpt>
      <trkpt lat="44.69906" lon="5.20338">
        <ele>399.57</ele>
        <time>2021-05-07T08:50:29Z</time>
      </trkpt>
      <trkpt lat="44.69916" lon="5.20331">
        <ele>396.68</ele>
        <time>2021-05-07T08:50:39Z</time>
      </trkpt>
      <trkpt lat="44.69916" lon="5.20323">
        <ele>393.8</ele>
        <time>2021-05-07T08:50:45Z</time>
      </trkpt>
      <trkpt lat="44.69914" lon="5.20315">
        <ele>391.39</ele>
        <time>2021-05-07T08:50:53Z</time>
      </trkpt>
      <trkpt lat="44.69909" lon="5.20306">
        <ele>389.47</ele>
        <time>2021-05-07T08:50:58Z</time>
      </trkpt>
      <trkpt lat="44.69895" lon="5.20301">
        <ele>386.11</ele>
        <time>2021-05-07T08:51:08Z</time>
      </trkpt>
      <trkpt lat="44.69895" lon="5.20296">
        <ele>385.15</ele>
        <time>2021-05-07T08:51:11Z</time>
      </trkpt>
      <trkpt lat="44.69904" lon="5.20288">
        <ele>381.78</ele>
        <time>2021-05-07T08:51:23Z</time>
      </trkpt>
      <trkpt lat="44.69908" lon="5.20284">
        <ele>380.82</ele>
        <time>2021-05-07T08:51:26Z</time>
      </trkpt>
      <trkpt lat="44.6991" lon="5.20278">
        <ele>378.42</ele>
        <time>2021-05-07T08:51:31Z</time>
      </trkpt>
      <trkpt lat="44.69906" lon="5.20273">
        <ele>377.45</ele>
        <time>2021-05-07T08:51:35Z</time>
      </trkpt>
      <trkpt lat="44.69891" lon="5.20266">
        <ele>375.05</ele>
        <time>2021-05-07T08:51:47Z</time>
      </trkpt>
      <trkpt lat="44.69883" lon="5.20266">
        <ele>374.57</ele>
        <time>2021-05-07T08:51:51Z</time>
      </trkpt>
      <trkpt lat="44.69864" lon="5.20267">
        <ele>371.69</ele>
        <time>2021-05-07T08:52:06Z</time>
      </trkpt>
      <trkpt lat="44.69863" lon="5.20267">
        <ele>371.69</ele>
        <time>2021-05-07T08:52:07Z</time>
      </trkpt>
      <trkpt lat="44.69855" lon="5.20265">
        <ele>370.73</ele>
        <time>2021-05-07T08:52:12Z</time>
      </trkpt>
      <trkpt lat="44.69853" lon="5.20263">
        <ele>370.24</ele>
        <time>2021-05-07T08:52:14Z</time>
      </trkpt>
      <trkpt lat="44.69839" lon="5.2026">
        <ele>368.8</ele>
        <time>2021-05-07T08:52:22Z</time>
      </trkpt>
      <trkpt lat="44.69814" lon="5.20263">
        <ele>365.92</ele>
        <time>2021-05-07T08:52:37Z</time>
      </trkpt>
      <trkpt lat="44.698" lon="5.20266">
        <ele>363.52</ele>
        <time>2021-05-07T08:52:47Z</time>
      </trkpt>
      <trkpt lat="44.69795" lon="5.20269">
        <ele>363.04</ele>
        <time>2021-05-07T08:52:51Z</time>
      </trkpt>
      <trkpt lat="44.69781" lon="5.20275">
        <ele>361.59</ele>
        <time>2021-05-07T08:53:00Z</time>
      </trkpt>
      <trkpt lat="44.69772" lon="5.20276">
        <ele>360.63</ele>
        <time>2021-05-07T08:53:05Z</time>
      </trkpt>
      <trkpt lat="44.69766" lon="5.20279">
        <ele>359.19</ele>
        <time>2021-05-07T08:53:11Z</time>
      </trkpt>
      <trkpt lat="44.69772" lon="5.20274">
        <ele>358.23</ele>
        <time>2021-05-07T08:53:18Z</time>
      </trkpt>
      <trkpt lat="44.69787" lon="5.20262">
        <ele>355.34</ele>
        <time>2021-05-07T08:53:32Z</time>
      </trkpt>
      <trkpt lat="44.69803" lon="5.20247">
        <ele>352.94</ele>
        <time>2021-05-07T08:53:46Z</time>
      </trkpt>
      <trkpt lat="44.698" lon="5.20242">
        <ele>351.5</ele>
        <time>2021-05-07T08:53:50Z</time>
      </trkpt>
      <trkpt lat="44.69785" lon="5.20244">
        <ele>349.58</ele>
        <time>2021-05-07T08:54:03Z</time>
      </trkpt>
      <trkpt lat="44.69784" lon="5.20244">
        <ele>349.58</ele>
        <time>2021-05-07T08:54:04Z</time>
      </trkpt>
      <trkpt lat="44.69763" lon="5.20247">
        <ele>346.69</ele>
        <time>2021-05-07T08:54:16Z</time>
      </trkpt>
      <trkpt lat="44.69762" lon="5.20254">
        <ele>346.21</ele>
        <time>2021-05-07T08:54:21Z</time>
      </trkpt>
      <trkpt lat="44.69758" lon="5.20254">
        <ele>342.85</ele>
        <time>2021-05-07T08:54:34Z</time>
      </trkpt>
      <trkpt lat="44.69759" lon="5.20245">
        <ele>339.48</ele>
        <time>2021-05-07T08:54:42Z</time>
      </trkpt>
      <trkpt lat="44.6976" lon="5.20241">
        <ele>338.52</ele>
        <time>2021-05-07T08:54:46Z</time>
      </trkpt>
      <trkpt lat="44.69762" lon="5.20236">
        <ele>337.08</ele>
        <time>2021-05-07T08:54:49Z</time>
      </trkpt>
      <trkpt lat="44.69763" lon="5.20233">
        <ele>336.12</ele>
        <time>2021-05-07T08:54:51Z</time>
      </trkpt>
      <trkpt lat="44.69767" lon="5.20228">
        <ele>335.16</ele>
        <time>2021-05-07T08:54:54Z</time>
      </trkpt>
      <trkpt lat="44.6977" lon="5.20222">
        <ele>332.75</ele>
        <time>2021-05-07T08:55:02Z</time>
      </trkpt>
      <trkpt lat="44.69773" lon="5.20215">
        <ele>331.31</ele>
        <time>2021-05-07T08:55:08Z</time>
      </trkpt>
      <trkpt lat="44.69773" lon="5.20205">
        <ele>329.39</ele>
        <time>2021-05-07T08:55:12Z</time>
      </trkpt>
      <trkpt lat="44.69776" lon="5.20197">
        <ele>327.95</ele>
        <time>2021-05-07T08:55:16Z</time>
      </trkpt>
      <trkpt lat="44.69778" lon="5.20193">
        <ele>326.99</ele>
        <time>2021-05-07T08:55:18Z</time>
      </trkpt>
      <trkpt lat="44.69785" lon="5.20176">
        <ele>324.1</ele>
        <time>2021-05-07T08:55:30Z</time>
      </trkpt>
      <trkpt lat="44.69786" lon="5.20175">
        <ele>323.62</ele>
        <time>2021-05-07T08:55:31Z</time>
      </trkpt>
      <trkpt lat="44.69789" lon="5.20165">
        <ele>320.26</ele>
        <time>2021-05-07T08:55:42Z</time>
      </trkpt>
      <trkpt lat="44.69788" lon="5.20161">
        <ele>319.78</ele>
        <time>2021-05-07T08:55:44Z</time>
      </trkpt>
      <trkpt lat="44.69789" lon="5.20147">
        <ele>316.89</ele>
        <time>2021-05-07T08:55:55Z</time>
      </trkpt>
      <trkpt lat="44.69788" lon="5.20143">
        <ele>314.97</ele>
        <time>2021-05-07T08:56:02Z</time>
      </trkpt>
      <trkpt lat="44.69786" lon="5.20135">
        <ele>312.57</ele>
        <time>2021-05-07T08:56:08Z</time>
      </trkpt>
      <trkpt lat="44.69783" lon="5.20131">
        <ele>311.12</ele>
        <time>2021-05-07T08:56:12Z</time>
      </trkpt>
      <trkpt lat="44.69782" lon="5.20129">
        <ele>309.68</ele>
        <time>2021-05-07T08:56:27Z</time>
      </trkpt>
      <trkpt lat="44.69782" lon="5.20129">
        <ele>308.72</ele>
        <time>2021-05-07T08:56:38Z</time>
      </trkpt>
      <trkpt lat="44.69782" lon="5.20122">
        <ele>305.84</ele>
        <time>2021-05-07T08:56:49Z</time>
      </trkpt>
      <trkpt lat="44.69784" lon="5.20108">
        <ele>302.47</ele>
        <time>2021-05-07T08:56:59Z</time>
      </trkpt>
      <trkpt lat="44.69786" lon="5.20097">
        <ele>299.59</ele>
        <time>2021-05-07T08:57:07Z</time>
      </trkpt>
      <trkpt lat="44.69786" lon="5.20086">
        <ele>297.18</ele>
        <time>2021-05-07T08:57:14Z</time>
      </trkpt>
      <trkpt lat="44.69781" lon="5.20076">
        <ele>295.26</ele>
        <time>2021-05-07T08:57:20Z</time>
      </trkpt>
      <trkpt lat="44.6978" lon="5.20065">
        <ele>291.9</ele>
        <time>2021-05-07T08:57:29Z</time>
      </trkpt>
      <trkpt lat="44.6978" lon="5.20056">
        <ele>290.46</ele>
        <time>2021-05-07T08:57:34Z</time>
      </trkpt>
      <trkpt lat="44.69774" lon="5.20037">
        <ele>288.05</ele>
        <time>2021-05-07T08:57:44Z</time>
      </trkpt>
      <trkpt lat="44.69774" lon="5.20034">
        <ele>287.57</ele>
        <time>2021-05-07T08:57:45Z</time>
      </trkpt>
      <trkpt lat="44.69769" lon="5.20023">
        <ele>285.65</ele>
        <time>2021-05-07T08:57:51Z</time>
      </trkpt>
      <trkpt lat="44.69758" lon="5.20011">
        <ele>282.77</ele>
        <time>2021-05-07T08:58:06Z</time>
      </trkpt>
      <trkpt lat="44.69754" lon="5.2001">
        <ele>282.28</ele>
        <time>2021-05-07T08:58:20Z</time>
      </trkpt>
      <trkpt lat="44.69739" lon="5.20006">
        <ele>279.4</ele>
        <time>2021-05-07T08:58:33Z</time>
      </trkpt>
      <trkpt lat="44.69737" lon="5.20004">
        <ele>278.92</ele>
        <time>2021-05-07T08:58:35Z</time>
      </trkpt>
      <trkpt lat="44.69735" lon="5.20001">
        <ele>278.44</ele>
        <time>2021-05-07T08:58:37Z</time>
      </trkpt>
      <trkpt lat="44.69729" lon="5.19997">
        <ele>277.96</ele>
        <time>2021-05-07T08:58:41Z</time>
      </trkpt>
    </trkseg>
  </trk>
</gpx>